
<gpx xmlns="http://www.topografix.com/GPX/1/1" xmlns:gpxx="http://www.garmin.com/xmlschemas/GpxExtensions/v3" xmlns:xsi="http://www.w3.org/2001/XMLSchema-instance" version="1.1" creator="Adze - http://kobotsw.com/apps/adze" xsi:schemaLocation="http://www.topografix.com/GPX/1/1 http://www.topografix.com/GPX/1/1/gpx.xsd http://www.garmin.com/xmlschemas/GpxExtensions/v3 http://www.garmin.com/xmlschemas/GpxExtensionsv3.xsd">
    <metadata>
        <name>Untitled Document</name>
        <link href="http://www.garmin.com"></link>
        <time>2018-01-05T06:55:17.917Z</time>
    </metadata>
    <wpt lon="101.383854" lat="14.196365">
        <time>2017-10-23T00:41:01Z</time>
        <name>Thanyaphak</name>
        <cmt>Lantau Island</cmt>
        <desc>Lantau Island</desc>
        <sym>Circle, Red</sym>
        <extensions>
            <gpxx:WaypointExtension xmlns:gpxx="http://www.garmin.com/xmlschemas/GpxExtensions/v3">
                <gpxx:DisplayMode>SymbolAndName</gpxx:DisplayMode>
            </gpxx:WaypointExtension>
        </extensions>
    </wpt>
    <wpt lon="101.345359" lat="14.192808">
        <ele>16.000000</ele>
        <time>2017-10-29T04:13:59Z</time>
        <name>Water Sunday</name>
        <sym>Drinking Water</sym>
        <extensions>
            <gpxx:WaypointExtension xmlns:gpxx="http://www.garmin.com/xmlschemas/GpxExtensions/v3">
                <gpxx:DisplayMode>SymbolOnly</gpxx:DisplayMode>
            </gpxx:WaypointExtension>
        </extensions>
    </wpt>
    <trk>
        <name>Sunday</name>
        <extensions>
            <gpxx:TrackExtension xmlns:gpxx="http://www.garmin.com/xmlschemas/GpxExtensions/v3">
                <gpxx:DisplayColor>Green</gpxx:DisplayColor>
            </gpxx:TrackExtension>
        </extensions>
        <trkseg>
            <trkpt lon="101.384008" lat="14.196445">
                <ele>21.770000</ele>
                <time>2017-10-29T02:59:19Z</time>
            </trkpt>
            <trkpt lon="101.384044" lat="14.196427">
                <ele>20.810000</ele>
                <time>2017-10-29T02:59:27Z</time>
            </trkpt>
            <trkpt lon="101.384152" lat="14.196175">
                <ele>19.360000</ele>
                <time>2017-10-29T02:59:39Z</time>
            </trkpt>
            <trkpt lon="101.384173" lat="14.196159">
                <ele>19.360000</ele>
                <time>2017-10-29T02:59:40Z</time>
            </trkpt>
            <trkpt lon="101.384201" lat="14.196149">
                <ele>19.360000</ele>
                <time>2017-10-29T02:59:41Z</time>
            </trkpt>
            <trkpt lon="101.384230" lat="14.196146">
                <ele>19.360000</ele>
                <time>2017-10-29T02:59:42Z</time>
            </trkpt>
            <trkpt lon="101.384260" lat="14.196147">
                <ele>19.360000</ele>
                <time>2017-10-29T02:59:43Z</time>
            </trkpt>
            <trkpt lon="101.384349" lat="14.196138">
                <ele>19.840000</ele>
                <time>2017-10-29T02:59:46Z</time>
            </trkpt>
            <trkpt lon="101.384348" lat="14.196062">
                <ele>19.360000</ele>
                <time>2017-10-29T02:59:49Z</time>
            </trkpt>
            <trkpt lon="101.384329" lat="14.196039">
                <ele>19.360000</ele>
                <time>2017-10-29T02:59:50Z</time>
            </trkpt>
            <trkpt lon="101.384308" lat="14.196016">
                <ele>19.360000</ele>
                <time>2017-10-29T02:59:51Z</time>
            </trkpt>
            <trkpt lon="101.384135" lat="14.195822">
                <ele>19.840000</ele>
                <time>2017-10-29T03:00:00Z</time>
            </trkpt>
            <trkpt lon="101.384140" lat="14.195693">
                <ele>20.320000</ele>
                <time>2017-10-29T03:00:05Z</time>
            </trkpt>
            <trkpt lon="101.384146" lat="14.195668">
                <ele>20.320000</ele>
                <time>2017-10-29T03:00:06Z</time>
            </trkpt>
            <trkpt lon="101.384146" lat="14.195647">
                <ele>20.810000</ele>
                <time>2017-10-29T03:00:07Z</time>
            </trkpt>
            <trkpt lon="101.384138" lat="14.195624">
                <ele>20.320000</ele>
                <time>2017-10-29T03:00:08Z</time>
            </trkpt>
            <trkpt lon="101.384129" lat="14.195601">
                <ele>20.320000</ele>
                <time>2017-10-29T03:00:09Z</time>
            </trkpt>
            <trkpt lon="101.384121" lat="14.195577">
                <ele>20.320000</ele>
                <time>2017-10-29T03:00:10Z</time>
            </trkpt>
            <trkpt lon="101.384107" lat="14.195555">
                <ele>19.840000</ele>
                <time>2017-10-29T03:00:11Z</time>
            </trkpt>
            <trkpt lon="101.384090" lat="14.195536">
                <ele>19.840000</ele>
                <time>2017-10-29T03:00:12Z</time>
            </trkpt>
            <trkpt lon="101.383749" lat="14.195192">
                <ele>19.360000</ele>
                <time>2017-10-29T03:00:28Z</time>
            </trkpt>
            <trkpt lon="101.383434" lat="14.194884">
                <ele>20.320000</ele>
                <time>2017-10-29T03:00:43Z</time>
            </trkpt>
            <trkpt lon="101.383413" lat="14.194879">
                <ele>20.320000</ele>
                <time>2017-10-29T03:00:44Z</time>
            </trkpt>
            <trkpt lon="101.383278" lat="14.194987">
                <ele>19.360000</ele>
                <time>2017-10-29T03:00:49Z</time>
            </trkpt>
            <trkpt lon="101.383199" lat="14.195188">
                <ele>18.880000</ele>
                <time>2017-10-29T03:00:54Z</time>
            </trkpt>
            <trkpt lon="101.383046" lat="14.195330">
                <ele>18.880000</ele>
                <time>2017-10-29T03:01:00Z</time>
            </trkpt>
            <trkpt lon="101.382670" lat="14.195345">
                <ele>20.320000</ele>
                <time>2017-10-29T03:01:12Z</time>
            </trkpt>
            <trkpt lon="101.382285" lat="14.195316">
                <ele>21.290000</ele>
                <time>2017-10-29T03:01:23Z</time>
            </trkpt>
            <trkpt lon="101.381883" lat="14.195282">
                <ele>21.770000</ele>
                <time>2017-10-29T03:01:35Z</time>
            </trkpt>
            <trkpt lon="101.381410" lat="14.195281">
                <ele>22.730000</ele>
                <time>2017-10-29T03:01:49Z</time>
            </trkpt>
            <trkpt lon="101.380932" lat="14.195428">
                <ele>21.770000</ele>
                <time>2017-10-29T03:02:03Z</time>
            </trkpt>
            <trkpt lon="101.380719" lat="14.195519">
                <ele>20.810000</ele>
                <time>2017-10-29T03:02:09Z</time>
            </trkpt>
            <trkpt lon="101.380342" lat="14.195926">
                <ele>19.840000</ele>
                <time>2017-10-29T03:02:23Z</time>
            </trkpt>
            <trkpt lon="101.379857" lat="14.196327">
                <ele>19.840000</ele>
                <time>2017-10-29T03:02:39Z</time>
            </trkpt>
            <trkpt lon="101.379779" lat="14.196375">
                <ele>19.360000</ele>
                <time>2017-10-29T03:02:41Z</time>
            </trkpt>
            <trkpt lon="101.379309" lat="14.196413">
                <ele>20.320000</ele>
                <time>2017-10-29T03:02:53Z</time>
            </trkpt>
            <trkpt lon="101.379179" lat="14.196051">
                <ele>20.810000</ele>
                <time>2017-10-29T03:03:04Z</time>
            </trkpt>
            <trkpt lon="101.379175" lat="14.196016">
                <ele>20.810000</ele>
                <time>2017-10-29T03:03:05Z</time>
            </trkpt>
            <trkpt lon="101.378986" lat="14.196029">
                <ele>20.320000</ele>
                <time>2017-10-29T03:03:12Z</time>
            </trkpt>
            <trkpt lon="101.378616" lat="14.196350">
                <ele>18.880000</ele>
                <time>2017-10-29T03:03:26Z</time>
            </trkpt>
            <trkpt lon="101.378180" lat="14.196315">
                <ele>19.360000</ele>
                <time>2017-10-29T03:03:37Z</time>
            </trkpt>
            <trkpt lon="101.377669" lat="14.196246">
                <ele>20.810000</ele>
                <time>2017-10-29T03:03:51Z</time>
            </trkpt>
            <trkpt lon="101.377442" lat="14.196025">
                <ele>20.320000</ele>
                <time>2017-10-29T03:04:01Z</time>
            </trkpt>
            <trkpt lon="101.377328" lat="14.195801">
                <ele>19.360000</ele>
                <time>2017-10-29T03:04:08Z</time>
            </trkpt>
            <trkpt lon="101.377140" lat="14.195773">
                <ele>18.400000</ele>
                <time>2017-10-29T03:04:13Z</time>
            </trkpt>
            <trkpt lon="101.376677" lat="14.195838">
                <ele>19.360000</ele>
                <time>2017-10-29T03:04:27Z</time>
            </trkpt>
            <trkpt lon="101.376494" lat="14.195506">
                <ele>17.920000</ele>
                <time>2017-10-29T03:04:38Z</time>
            </trkpt>
            <trkpt lon="101.376175" lat="14.195286">
                <ele>18.400000</ele>
                <time>2017-10-29T03:04:49Z</time>
            </trkpt>
            <trkpt lon="101.376017" lat="14.195334">
                <ele>18.880000</ele>
                <time>2017-10-29T03:04:53Z</time>
            </trkpt>
            <trkpt lon="101.375533" lat="14.195695">
                <ele>19.840000</ele>
                <time>2017-10-29T03:05:10Z</time>
            </trkpt>
            <trkpt lon="101.375504" lat="14.195724">
                <ele>19.840000</ele>
                <time>2017-10-29T03:05:11Z</time>
            </trkpt>
            <trkpt lon="101.375021" lat="14.195859">
                <ele>19.840000</ele>
                <time>2017-10-29T03:05:24Z</time>
            </trkpt>
            <trkpt lon="101.374478" lat="14.195776">
                <ele>19.360000</ele>
                <time>2017-10-29T03:05:39Z</time>
            </trkpt>
            <trkpt lon="101.374218" lat="14.195505">
                <ele>19.840000</ele>
                <time>2017-10-29T03:05:51Z</time>
            </trkpt>
            <trkpt lon="101.374020" lat="14.195315">
                <ele>19.840000</ele>
                <time>2017-10-29T03:05:57Z</time>
            </trkpt>
            <trkpt lon="101.373979" lat="14.195294">
                <ele>19.840000</ele>
                <time>2017-10-29T03:05:58Z</time>
            </trkpt>
            <trkpt lon="101.373933" lat="14.195286">
                <ele>19.840000</ele>
                <time>2017-10-29T03:05:59Z</time>
            </trkpt>
            <trkpt lon="101.373785" lat="14.195320">
                <ele>19.840000</ele>
                <time>2017-10-29T03:06:02Z</time>
            </trkpt>
            <trkpt lon="101.373433" lat="14.195462">
                <ele>19.840000</ele>
                <time>2017-10-29T03:06:09Z</time>
            </trkpt>
            <trkpt lon="101.373219" lat="14.195733">
                <ele>21.290000</ele>
                <time>2017-10-29T03:06:18Z</time>
            </trkpt>
            <trkpt lon="101.373135" lat="14.195909">
                <ele>20.810000</ele>
                <time>2017-10-29T03:06:23Z</time>
            </trkpt>
            <trkpt lon="101.373038" lat="14.196059">
                <ele>20.810000</ele>
                <time>2017-10-29T03:06:32Z</time>
            </trkpt>
            <trkpt lon="101.372977" lat="14.196117">
                <ele>20.810000</ele>
                <time>2017-10-29T03:06:51Z</time>
            </trkpt>
            <trkpt lon="101.372746" lat="14.196302">
                <ele>18.400000</ele>
                <time>2017-10-29T03:07:01Z</time>
            </trkpt>
            <trkpt lon="101.372649" lat="14.196698">
                <ele>16.960000</ele>
                <time>2017-10-29T03:07:13Z</time>
            </trkpt>
            <trkpt lon="101.372381" lat="14.196812">
                <ele>18.400000</ele>
                <time>2017-10-29T03:07:22Z</time>
            </trkpt>
            <trkpt lon="101.372304" lat="14.196786">
                <ele>18.400000</ele>
                <time>2017-10-29T03:07:24Z</time>
            </trkpt>
            <trkpt lon="101.372164" lat="14.196637">
                <ele>18.400000</ele>
                <time>2017-10-29T03:07:29Z</time>
            </trkpt>
            <trkpt lon="101.372002" lat="14.196554">
                <ele>18.400000</ele>
                <time>2017-10-29T03:07:33Z</time>
            </trkpt>
            <trkpt lon="101.371788" lat="14.196492">
                <ele>18.400000</ele>
                <time>2017-10-29T03:07:39Z</time>
            </trkpt>
            <trkpt lon="101.371780" lat="14.196477">
                <ele>18.880000</ele>
                <time>2017-10-29T03:07:40Z</time>
            </trkpt>
            <trkpt lon="101.371795" lat="14.196453">
                <ele>17.920000</ele>
                <time>2017-10-29T03:07:51Z</time>
            </trkpt>
            <trkpt lon="101.371818" lat="14.196429">
                <ele>17.920000</ele>
                <time>2017-10-29T03:08:00Z</time>
            </trkpt>
            <trkpt lon="101.371828" lat="14.196417">
                <ele>17.920000</ele>
                <time>2017-10-29T03:08:01Z</time>
            </trkpt>
            <trkpt lon="101.371839" lat="14.196405">
                <ele>17.920000</ele>
                <time>2017-10-29T03:08:02Z</time>
            </trkpt>
            <trkpt lon="101.371848" lat="14.196391">
                <ele>17.920000</ele>
                <time>2017-10-29T03:08:03Z</time>
            </trkpt>
            <trkpt lon="101.371860" lat="14.196374">
                <ele>17.920000</ele>
                <time>2017-10-29T03:08:04Z</time>
            </trkpt>
            <trkpt lon="101.371874" lat="14.196354">
                <ele>17.920000</ele>
                <time>2017-10-29T03:08:05Z</time>
            </trkpt>
            <trkpt lon="101.371873" lat="14.196009">
                <ele>16.960000</ele>
                <time>2017-10-29T03:08:16Z</time>
            </trkpt>
            <trkpt lon="101.371786" lat="14.195712">
                <ele>16.480000</ele>
                <time>2017-10-29T03:08:23Z</time>
            </trkpt>
            <trkpt lon="101.371780" lat="14.195667">
                <ele>16.480000</ele>
                <time>2017-10-29T03:08:24Z</time>
            </trkpt>
            <trkpt lon="101.371774" lat="14.195574">
                <ele>16.480000</ele>
                <time>2017-10-29T03:08:26Z</time>
            </trkpt>
            <trkpt lon="101.371778" lat="14.195526">
                <ele>16.960000</ele>
                <time>2017-10-29T03:08:27Z</time>
            </trkpt>
            <trkpt lon="101.371871" lat="14.195101">
                <ele>17.920000</ele>
                <time>2017-10-29T03:08:36Z</time>
            </trkpt>
            <trkpt lon="101.371872" lat="14.195060">
                <ele>17.920000</ele>
                <time>2017-10-29T03:08:37Z</time>
            </trkpt>
            <trkpt lon="101.371865" lat="14.195018">
                <ele>17.920000</ele>
                <time>2017-10-29T03:08:38Z</time>
            </trkpt>
            <trkpt lon="101.371851" lat="14.194978">
                <ele>17.920000</ele>
                <time>2017-10-29T03:08:39Z</time>
            </trkpt>
            <trkpt lon="101.371832" lat="14.194945">
                <ele>17.920000</ele>
                <time>2017-10-29T03:08:40Z</time>
            </trkpt>
            <trkpt lon="101.371804" lat="14.194916">
                <ele>17.920000</ele>
                <time>2017-10-29T03:08:41Z</time>
            </trkpt>
            <trkpt lon="101.371771" lat="14.194897">
                <ele>17.920000</ele>
                <time>2017-10-29T03:08:42Z</time>
            </trkpt>
            <trkpt lon="101.371739" lat="14.194879">
                <ele>17.920000</ele>
                <time>2017-10-29T03:08:43Z</time>
            </trkpt>
            <trkpt lon="101.371705" lat="14.194853">
                <ele>17.920000</ele>
                <time>2017-10-29T03:08:44Z</time>
            </trkpt>
            <trkpt lon="101.371673" lat="14.194828">
                <ele>17.920000</ele>
                <time>2017-10-29T03:08:45Z</time>
            </trkpt>
            <trkpt lon="101.371639" lat="14.194804">
                <ele>17.920000</ele>
                <time>2017-10-29T03:08:46Z</time>
            </trkpt>
            <trkpt lon="101.371561" lat="14.194760">
                <ele>17.920000</ele>
                <time>2017-10-29T03:08:48Z</time>
            </trkpt>
            <trkpt lon="101.371524" lat="14.194748">
                <ele>18.400000</ele>
                <time>2017-10-29T03:08:49Z</time>
            </trkpt>
            <trkpt lon="101.371479" lat="14.194740">
                <ele>18.400000</ele>
                <time>2017-10-29T03:08:50Z</time>
            </trkpt>
            <trkpt lon="101.371431" lat="14.194740">
                <ele>18.400000</ele>
                <time>2017-10-29T03:08:51Z</time>
            </trkpt>
            <trkpt lon="101.371389" lat="14.194746">
                <ele>18.880000</ele>
                <time>2017-10-29T03:08:52Z</time>
            </trkpt>
            <trkpt lon="101.371345" lat="14.194757">
                <ele>18.880000</ele>
                <time>2017-10-29T03:08:53Z</time>
            </trkpt>
            <trkpt lon="101.371300" lat="14.194772">
                <ele>18.880000</ele>
                <time>2017-10-29T03:08:54Z</time>
            </trkpt>
            <trkpt lon="101.371260" lat="14.194791">
                <ele>18.880000</ele>
                <time>2017-10-29T03:08:55Z</time>
            </trkpt>
            <trkpt lon="101.371220" lat="14.194816">
                <ele>19.360000</ele>
                <time>2017-10-29T03:08:56Z</time>
            </trkpt>
            <trkpt lon="101.371183" lat="14.194841">
                <ele>19.360000</ele>
                <time>2017-10-29T03:08:57Z</time>
            </trkpt>
            <trkpt lon="101.371000" lat="14.194978">
                <ele>19.360000</ele>
                <time>2017-10-29T03:09:02Z</time>
            </trkpt>
            <trkpt lon="101.370961" lat="14.194999">
                <ele>19.360000</ele>
                <time>2017-10-29T03:09:03Z</time>
            </trkpt>
            <trkpt lon="101.370916" lat="14.195016">
                <ele>19.360000</ele>
                <time>2017-10-29T03:09:04Z</time>
            </trkpt>
            <trkpt lon="101.370872" lat="14.195018">
                <ele>19.360000</ele>
                <time>2017-10-29T03:09:05Z</time>
            </trkpt>
            <trkpt lon="101.370835" lat="14.195005">
                <ele>19.360000</ele>
                <time>2017-10-29T03:09:06Z</time>
            </trkpt>
            <trkpt lon="101.370808" lat="14.194976">
                <ele>19.360000</ele>
                <time>2017-10-29T03:09:07Z</time>
            </trkpt>
            <trkpt lon="101.370799" lat="14.194940">
                <ele>19.360000</ele>
                <time>2017-10-29T03:09:08Z</time>
            </trkpt>
            <trkpt lon="101.370808" lat="14.194866">
                <ele>19.360000</ele>
                <time>2017-10-29T03:09:10Z</time>
            </trkpt>
            <trkpt lon="101.370807" lat="14.194750">
                <ele>18.880000</ele>
                <time>2017-10-29T03:09:13Z</time>
            </trkpt>
            <trkpt lon="101.370796" lat="14.194710">
                <ele>18.880000</ele>
                <time>2017-10-29T03:09:14Z</time>
            </trkpt>
            <trkpt lon="101.370780" lat="14.194668">
                <ele>18.400000</ele>
                <time>2017-10-29T03:09:15Z</time>
            </trkpt>
            <trkpt lon="101.370757" lat="14.194627">
                <ele>18.400000</ele>
                <time>2017-10-29T03:09:16Z</time>
            </trkpt>
            <trkpt lon="101.370728" lat="14.194588">
                <ele>18.400000</ele>
                <time>2017-10-29T03:09:17Z</time>
            </trkpt>
            <trkpt lon="101.370695" lat="14.194551">
                <ele>18.400000</ele>
                <time>2017-10-29T03:09:18Z</time>
            </trkpt>
            <trkpt lon="101.370662" lat="14.194519">
                <ele>17.920000</ele>
                <time>2017-10-29T03:09:19Z</time>
            </trkpt>
            <trkpt lon="101.370625" lat="14.194488">
                <ele>17.920000</ele>
                <time>2017-10-29T03:09:20Z</time>
            </trkpt>
            <trkpt lon="101.370587" lat="14.194462">
                <ele>17.920000</ele>
                <time>2017-10-29T03:09:21Z</time>
            </trkpt>
            <trkpt lon="101.370210" lat="14.194267">
                <ele>18.400000</ele>
                <time>2017-10-29T03:09:30Z</time>
            </trkpt>
            <trkpt lon="101.370164" lat="14.194251">
                <ele>18.400000</ele>
                <time>2017-10-29T03:09:31Z</time>
            </trkpt>
            <trkpt lon="101.370117" lat="14.194241">
                <ele>18.400000</ele>
                <time>2017-10-29T03:09:32Z</time>
            </trkpt>
            <trkpt lon="101.370070" lat="14.194234">
                <ele>18.400000</ele>
                <time>2017-10-29T03:09:33Z</time>
            </trkpt>
            <trkpt lon="101.370021" lat="14.194230">
                <ele>18.400000</ele>
                <time>2017-10-29T03:09:34Z</time>
            </trkpt>
            <trkpt lon="101.369831" lat="14.194225">
                <ele>18.880000</ele>
                <time>2017-10-29T03:09:38Z</time>
            </trkpt>
            <trkpt lon="101.369788" lat="14.194211">
                <ele>18.880000</ele>
                <time>2017-10-29T03:09:39Z</time>
            </trkpt>
            <trkpt lon="101.369749" lat="14.194186">
                <ele>18.880000</ele>
                <time>2017-10-29T03:09:40Z</time>
            </trkpt>
            <trkpt lon="101.369714" lat="14.194157">
                <ele>18.880000</ele>
                <time>2017-10-29T03:09:41Z</time>
            </trkpt>
            <trkpt lon="101.369678" lat="14.194126">
                <ele>18.880000</ele>
                <time>2017-10-29T03:09:42Z</time>
            </trkpt>
            <trkpt lon="101.369404" lat="14.193913">
                <ele>20.320000</ele>
                <time>2017-10-29T03:09:49Z</time>
            </trkpt>
            <trkpt lon="101.369360" lat="14.193895">
                <ele>20.320000</ele>
                <time>2017-10-29T03:09:50Z</time>
            </trkpt>
            <trkpt lon="101.369314" lat="14.193881">
                <ele>20.320000</ele>
                <time>2017-10-29T03:09:51Z</time>
            </trkpt>
            <trkpt lon="101.369124" lat="14.193828">
                <ele>20.320000</ele>
                <time>2017-10-29T03:09:55Z</time>
            </trkpt>
            <trkpt lon="101.369071" lat="14.193823">
                <ele>20.320000</ele>
                <time>2017-10-29T03:09:56Z</time>
            </trkpt>
            <trkpt lon="101.369018" lat="14.193824">
                <ele>20.320000</ele>
                <time>2017-10-29T03:09:57Z</time>
            </trkpt>
            <trkpt lon="101.368964" lat="14.193832">
                <ele>20.320000</ele>
                <time>2017-10-29T03:09:58Z</time>
            </trkpt>
            <trkpt lon="101.368912" lat="14.193843">
                <ele>19.840000</ele>
                <time>2017-10-29T03:09:59Z</time>
            </trkpt>
            <trkpt lon="101.368863" lat="14.193857">
                <ele>19.840000</ele>
                <time>2017-10-29T03:10:00Z</time>
            </trkpt>
            <trkpt lon="101.368713" lat="14.193901">
                <ele>19.840000</ele>
                <time>2017-10-29T03:10:03Z</time>
            </trkpt>
            <trkpt lon="101.368454" lat="14.194005">
                <ele>19.360000</ele>
                <time>2017-10-29T03:10:08Z</time>
            </trkpt>
            <trkpt lon="101.368401" lat="14.194018">
                <ele>19.840000</ele>
                <time>2017-10-29T03:10:09Z</time>
            </trkpt>
            <trkpt lon="101.368348" lat="14.194025">
                <ele>19.840000</ele>
                <time>2017-10-29T03:10:10Z</time>
            </trkpt>
            <trkpt lon="101.368295" lat="14.194025">
                <ele>19.840000</ele>
                <time>2017-10-29T03:10:11Z</time>
            </trkpt>
            <trkpt lon="101.368244" lat="14.194021">
                <ele>19.840000</ele>
                <time>2017-10-29T03:10:12Z</time>
            </trkpt>
            <trkpt lon="101.368094" lat="14.194032">
                <ele>19.840000</ele>
                <time>2017-10-29T03:10:15Z</time>
            </trkpt>
            <trkpt lon="101.368044" lat="14.194045">
                <ele>19.840000</ele>
                <time>2017-10-29T03:10:16Z</time>
            </trkpt>
            <trkpt lon="101.367997" lat="14.194063">
                <ele>19.840000</ele>
                <time>2017-10-29T03:10:17Z</time>
            </trkpt>
            <trkpt lon="101.367952" lat="14.194085">
                <ele>19.840000</ele>
                <time>2017-10-29T03:10:18Z</time>
            </trkpt>
            <trkpt lon="101.367908" lat="14.194110">
                <ele>19.840000</ele>
                <time>2017-10-29T03:10:19Z</time>
            </trkpt>
            <trkpt lon="101.367867" lat="14.194137">
                <ele>19.840000</ele>
                <time>2017-10-29T03:10:20Z</time>
            </trkpt>
            <trkpt lon="101.367831" lat="14.194169">
                <ele>19.840000</ele>
                <time>2017-10-29T03:10:21Z</time>
            </trkpt>
            <trkpt lon="101.367801" lat="14.194205">
                <ele>19.840000</ele>
                <time>2017-10-29T03:10:22Z</time>
            </trkpt>
            <trkpt lon="101.367777" lat="14.194245">
                <ele>19.840000</ele>
                <time>2017-10-29T03:10:23Z</time>
            </trkpt>
            <trkpt lon="101.367752" lat="14.194286">
                <ele>19.360000</ele>
                <time>2017-10-29T03:10:24Z</time>
            </trkpt>
            <trkpt lon="101.367726" lat="14.194323">
                <ele>19.360000</ele>
                <time>2017-10-29T03:10:25Z</time>
            </trkpt>
            <trkpt lon="101.367693" lat="14.194356">
                <ele>19.360000</ele>
                <time>2017-10-29T03:10:26Z</time>
            </trkpt>
            <trkpt lon="101.367653" lat="14.194379">
                <ele>19.360000</ele>
                <time>2017-10-29T03:10:27Z</time>
            </trkpt>
            <trkpt lon="101.367610" lat="14.194390">
                <ele>19.360000</ele>
                <time>2017-10-29T03:10:28Z</time>
            </trkpt>
            <trkpt lon="101.367564" lat="14.194392">
                <ele>19.360000</ele>
                <time>2017-10-29T03:10:29Z</time>
            </trkpt>
            <trkpt lon="101.367371" lat="14.194384">
                <ele>19.360000</ele>
                <time>2017-10-29T03:10:33Z</time>
            </trkpt>
            <trkpt lon="101.367318" lat="14.194391">
                <ele>19.840000</ele>
                <time>2017-10-29T03:10:34Z</time>
            </trkpt>
            <trkpt lon="101.366965" lat="14.194483">
                <ele>19.840000</ele>
                <time>2017-10-29T03:10:41Z</time>
            </trkpt>
            <trkpt lon="101.366920" lat="14.194486">
                <ele>19.840000</ele>
                <time>2017-10-29T03:10:42Z</time>
            </trkpt>
            <trkpt lon="101.366875" lat="14.194476">
                <ele>19.840000</ele>
                <time>2017-10-29T03:10:43Z</time>
            </trkpt>
            <trkpt lon="101.366837" lat="14.194453">
                <ele>19.360000</ele>
                <time>2017-10-29T03:10:44Z</time>
            </trkpt>
            <trkpt lon="101.366800" lat="14.194425">
                <ele>19.360000</ele>
                <time>2017-10-29T03:10:45Z</time>
            </trkpt>
            <trkpt lon="101.366763" lat="14.194398">
                <ele>19.360000</ele>
                <time>2017-10-29T03:10:46Z</time>
            </trkpt>
            <trkpt lon="101.366722" lat="14.194375">
                <ele>19.360000</ele>
                <time>2017-10-29T03:10:47Z</time>
            </trkpt>
            <trkpt lon="101.366678" lat="14.194355">
                <ele>19.360000</ele>
                <time>2017-10-29T03:10:48Z</time>
            </trkpt>
            <trkpt lon="101.366634" lat="14.194339">
                <ele>19.360000</ele>
                <time>2017-10-29T03:10:49Z</time>
            </trkpt>
            <trkpt lon="101.366587" lat="14.194326">
                <ele>18.880000</ele>
                <time>2017-10-29T03:10:50Z</time>
            </trkpt>
            <trkpt lon="101.366538" lat="14.194317">
                <ele>18.880000</ele>
                <time>2017-10-29T03:10:51Z</time>
            </trkpt>
            <trkpt lon="101.366204" lat="14.194228">
                <ele>18.880000</ele>
                <time>2017-10-29T03:10:58Z</time>
            </trkpt>
            <trkpt lon="101.366162" lat="14.194210">
                <ele>18.880000</ele>
                <time>2017-10-29T03:10:59Z</time>
            </trkpt>
            <trkpt lon="101.365305" lat="14.194051">
                <ele>19.360000</ele>
                <time>2017-10-29T03:11:16Z</time>
            </trkpt>
            <trkpt lon="101.365096" lat="14.194013">
                <ele>19.360000</ele>
                <time>2017-10-29T03:11:20Z</time>
            </trkpt>
            <trkpt lon="101.365050" lat="14.193990">
                <ele>18.880000</ele>
                <time>2017-10-29T03:11:21Z</time>
            </trkpt>
            <trkpt lon="101.365008" lat="14.193959">
                <ele>18.880000</ele>
                <time>2017-10-29T03:11:22Z</time>
            </trkpt>
            <trkpt lon="101.364974" lat="14.193922">
                <ele>18.400000</ele>
                <time>2017-10-29T03:11:23Z</time>
            </trkpt>
            <trkpt lon="101.364943" lat="14.193879">
                <ele>18.400000</ele>
                <time>2017-10-29T03:11:24Z</time>
            </trkpt>
            <trkpt lon="101.364915" lat="14.193837">
                <ele>18.400000</ele>
                <time>2017-10-29T03:11:25Z</time>
            </trkpt>
            <trkpt lon="101.364890" lat="14.193791">
                <ele>18.400000</ele>
                <time>2017-10-29T03:11:26Z</time>
            </trkpt>
            <trkpt lon="101.364780" lat="14.193606">
                <ele>17.920000</ele>
                <time>2017-10-29T03:11:30Z</time>
            </trkpt>
            <trkpt lon="101.364741" lat="14.193566">
                <ele>17.920000</ele>
                <time>2017-10-29T03:11:31Z</time>
            </trkpt>
            <trkpt lon="101.364698" lat="14.193535">
                <ele>17.920000</ele>
                <time>2017-10-29T03:11:32Z</time>
            </trkpt>
            <trkpt lon="101.364647" lat="14.193514">
                <ele>17.920000</ele>
                <time>2017-10-29T03:11:33Z</time>
            </trkpt>
            <trkpt lon="101.364597" lat="14.193503">
                <ele>17.920000</ele>
                <time>2017-10-29T03:11:34Z</time>
            </trkpt>
            <trkpt lon="101.364543" lat="14.193495">
                <ele>17.920000</ele>
                <time>2017-10-29T03:11:35Z</time>
            </trkpt>
            <trkpt lon="101.364491" lat="14.193492">
                <ele>17.920000</ele>
                <time>2017-10-29T03:11:36Z</time>
            </trkpt>
            <trkpt lon="101.364437" lat="14.193491">
                <ele>17.920000</ele>
                <time>2017-10-29T03:11:37Z</time>
            </trkpt>
            <trkpt lon="101.364383" lat="14.193492">
                <ele>17.920000</ele>
                <time>2017-10-29T03:11:38Z</time>
            </trkpt>
            <trkpt lon="101.364049" lat="14.193518">
                <ele>17.920000</ele>
                <time>2017-10-29T03:11:49Z</time>
            </trkpt>
            <trkpt lon="101.364090" lat="14.193538">
                <ele>17.920000</ele>
                <time>2017-10-29T03:12:00Z</time>
            </trkpt>
            <trkpt lon="101.364199" lat="14.193489">
                <ele>17.920000</ele>
                <time>2017-10-29T03:12:06Z</time>
            </trkpt>
            <trkpt lon="101.364203" lat="14.193371">
                <ele>16.960000</ele>
                <time>2017-10-29T03:12:10Z</time>
            </trkpt>
            <trkpt lon="101.364193" lat="14.193338">
                <ele>16.960000</ele>
                <time>2017-10-29T03:12:11Z</time>
            </trkpt>
            <trkpt lon="101.364184" lat="14.193260">
                <ele>16.960000</ele>
                <time>2017-10-29T03:12:13Z</time>
            </trkpt>
            <trkpt lon="101.364188" lat="14.193219">
                <ele>16.480000</ele>
                <time>2017-10-29T03:12:14Z</time>
            </trkpt>
            <trkpt lon="101.364240" lat="14.192954">
                <ele>16.480000</ele>
                <time>2017-10-29T03:12:20Z</time>
            </trkpt>
            <trkpt lon="101.364239" lat="14.192858">
                <ele>16.480000</ele>
                <time>2017-10-29T03:12:22Z</time>
            </trkpt>
            <trkpt lon="101.364234" lat="14.192809">
                <ele>16.480000</ele>
                <time>2017-10-29T03:12:23Z</time>
            </trkpt>
            <trkpt lon="101.364176" lat="14.192569">
                <ele>16.480000</ele>
                <time>2017-10-29T03:12:28Z</time>
            </trkpt>
            <trkpt lon="101.364072" lat="14.192420">
                <ele>16.000000</ele>
                <time>2017-10-29T03:12:32Z</time>
            </trkpt>
            <trkpt lon="101.363909" lat="14.192308">
                <ele>15.520000</ele>
                <time>2017-10-29T03:12:36Z</time>
            </trkpt>
            <trkpt lon="101.363404" lat="14.191628">
                <ele>15.520000</ele>
                <time>2017-10-29T03:12:53Z</time>
            </trkpt>
            <trkpt lon="101.363234" lat="14.191520">
                <ele>15.520000</ele>
                <time>2017-10-29T03:12:57Z</time>
            </trkpt>
            <trkpt lon="101.362374" lat="14.191361">
                <ele>15.520000</ele>
                <time>2017-10-29T03:13:13Z</time>
            </trkpt>
            <trkpt lon="101.362274" lat="14.191352">
                <ele>15.520000</ele>
                <time>2017-10-29T03:13:15Z</time>
            </trkpt>
            <trkpt lon="101.361624" lat="14.191502">
                <ele>16.960000</ele>
                <time>2017-10-29T03:13:32Z</time>
            </trkpt>
            <trkpt lon="101.361506" lat="14.191541">
                <ele>16.960000</ele>
                <time>2017-10-29T03:13:41Z</time>
            </trkpt>
            <trkpt lon="101.361035" lat="14.191607">
                <ele>17.440000</ele>
                <time>2017-10-29T03:13:54Z</time>
            </trkpt>
            <trkpt lon="101.360992" lat="14.191594">
                <ele>17.440000</ele>
                <time>2017-10-29T03:13:55Z</time>
            </trkpt>
            <trkpt lon="101.360953" lat="14.191571">
                <ele>17.440000</ele>
                <time>2017-10-29T03:13:56Z</time>
            </trkpt>
            <trkpt lon="101.360920" lat="14.191542">
                <ele>17.440000</ele>
                <time>2017-10-29T03:13:57Z</time>
            </trkpt>
            <trkpt lon="101.360887" lat="14.191511">
                <ele>17.440000</ele>
                <time>2017-10-29T03:13:58Z</time>
            </trkpt>
            <trkpt lon="101.360816" lat="14.191462">
                <ele>17.440000</ele>
                <time>2017-10-29T03:14:00Z</time>
            </trkpt>
            <trkpt lon="101.360777" lat="14.191458">
                <ele>17.440000</ele>
                <time>2017-10-29T03:14:01Z</time>
            </trkpt>
            <trkpt lon="101.360749" lat="14.191463">
                <ele>17.440000</ele>
                <time>2017-10-29T03:14:02Z</time>
            </trkpt>
            <trkpt lon="101.360750" lat="14.191443">
                <ele>17.920000</ele>
                <time>2017-10-29T03:14:09Z</time>
            </trkpt>
            <trkpt lon="101.360756" lat="14.191431">
                <ele>17.440000</ele>
                <time>2017-10-29T03:14:10Z</time>
            </trkpt>
            <trkpt lon="101.360758" lat="14.191415">
                <ele>17.440000</ele>
                <time>2017-10-29T03:14:11Z</time>
            </trkpt>
            <trkpt lon="101.360751" lat="14.191394">
                <ele>17.440000</ele>
                <time>2017-10-29T03:14:12Z</time>
            </trkpt>
            <trkpt lon="101.360734" lat="14.191374">
                <ele>17.440000</ele>
                <time>2017-10-29T03:14:13Z</time>
            </trkpt>
            <trkpt lon="101.360710" lat="14.191353">
                <ele>16.960000</ele>
                <time>2017-10-29T03:14:14Z</time>
            </trkpt>
            <trkpt lon="101.360681" lat="14.191334">
                <ele>16.960000</ele>
                <time>2017-10-29T03:14:15Z</time>
            </trkpt>
            <trkpt lon="101.360158" lat="14.190828">
                <ele>16.000000</ele>
                <time>2017-10-29T03:14:31Z</time>
            </trkpt>
            <trkpt lon="101.360021" lat="14.190687">
                <ele>16.000000</ele>
                <time>2017-10-29T03:14:35Z</time>
            </trkpt>
            <trkpt lon="101.359559" lat="14.190218">
                <ele>15.040000</ele>
                <time>2017-10-29T03:14:48Z</time>
            </trkpt>
            <trkpt lon="101.359495" lat="14.190157">
                <ele>15.040000</ele>
                <time>2017-10-29T03:14:50Z</time>
            </trkpt>
            <trkpt lon="101.359465" lat="14.190125">
                <ele>15.040000</ele>
                <time>2017-10-29T03:14:51Z</time>
            </trkpt>
            <trkpt lon="101.358884" lat="14.189518">
                <ele>15.040000</ele>
                <time>2017-10-29T03:15:09Z</time>
            </trkpt>
            <trkpt lon="101.358613" lat="14.189233">
                <ele>15.040000</ele>
                <time>2017-10-29T03:15:17Z</time>
            </trkpt>
            <trkpt lon="101.358520" lat="14.189126">
                <ele>15.040000</ele>
                <time>2017-10-29T03:15:20Z</time>
            </trkpt>
            <trkpt lon="101.358488" lat="14.189100">
                <ele>15.040000</ele>
                <time>2017-10-29T03:15:21Z</time>
            </trkpt>
            <trkpt lon="101.358464" lat="14.189086">
                <ele>15.040000</ele>
                <time>2017-10-29T03:15:22Z</time>
            </trkpt>
            <trkpt lon="101.358449" lat="14.189086">
                <ele>15.040000</ele>
                <time>2017-10-29T03:15:23Z</time>
            </trkpt>
            <trkpt lon="101.358441" lat="14.189103">
                <ele>15.520000</ele>
                <time>2017-10-29T03:15:26Z</time>
            </trkpt>
            <trkpt lon="101.358355" lat="14.189179">
                <ele>16.960000</ele>
                <time>2017-10-29T03:15:33Z</time>
            </trkpt>
            <trkpt lon="101.358336" lat="14.189198">
                <ele>16.960000</ele>
                <time>2017-10-29T03:15:37Z</time>
            </trkpt>
            <trkpt lon="101.358359" lat="14.189318">
                <ele>16.480000</ele>
                <time>2017-10-29T03:15:43Z</time>
            </trkpt>
            <trkpt lon="101.358540" lat="14.189516">
                <ele>16.480000</ele>
                <time>2017-10-29T03:15:50Z</time>
            </trkpt>
            <trkpt lon="101.358604" lat="14.189843">
                <ele>15.040000</ele>
                <time>2017-10-29T03:16:02Z</time>
            </trkpt>
            <trkpt lon="101.358724" lat="14.190296">
                <ele>14.560000</ele>
                <time>2017-10-29T03:16:18Z</time>
            </trkpt>
            <trkpt lon="101.358786" lat="14.190538">
                <ele>14.560000</ele>
                <time>2017-10-29T03:16:31Z</time>
            </trkpt>
            <trkpt lon="101.358852" lat="14.190872">
                <ele>14.080000</ele>
                <time>2017-10-29T03:16:45Z</time>
            </trkpt>
            <trkpt lon="101.358874" lat="14.191068">
                <ele>14.560000</ele>
                <time>2017-10-29T03:16:58Z</time>
            </trkpt>
            <trkpt lon="101.358884" lat="14.191125">
                <ele>15.040000</ele>
                <time>2017-10-29T03:17:10Z</time>
            </trkpt>
            <trkpt lon="101.358919" lat="14.191383">
                <ele>14.080000</ele>
                <time>2017-10-29T03:17:25Z</time>
            </trkpt>
            <trkpt lon="101.359010" lat="14.191678">
                <ele>13.600000</ele>
                <time>2017-10-29T03:17:43Z</time>
            </trkpt>
            <trkpt lon="101.359039" lat="14.191845">
                <ele>15.040000</ele>
                <time>2017-10-29T03:17:55Z</time>
            </trkpt>
            <trkpt lon="101.359061" lat="14.192168">
                <ele>15.520000</ele>
                <time>2017-10-29T03:18:09Z</time>
            </trkpt>
            <trkpt lon="101.359042" lat="14.192331">
                <ele>16.480000</ele>
                <time>2017-10-29T03:18:21Z</time>
            </trkpt>
            <trkpt lon="101.359043" lat="14.192343">
                <ele>16.480000</ele>
                <time>2017-10-29T03:18:43Z</time>
            </trkpt>
            <trkpt lon="101.359058" lat="14.192323">
                <ele>16.000000</ele>
                <time>2017-10-29T03:18:59Z</time>
            </trkpt>
            <trkpt lon="101.359063" lat="14.192057">
                <ele>16.000000</ele>
                <time>2017-10-29T03:19:14Z</time>
            </trkpt>
            <trkpt lon="101.359052" lat="14.191935">
                <ele>16.000000</ele>
                <time>2017-10-29T03:19:27Z</time>
            </trkpt>
            <trkpt lon="101.359054" lat="14.191907">
                <ele>20.810000</ele>
                <time>2017-10-29T03:19:53Z</time>
            </trkpt>
            <trkpt lon="101.359062" lat="14.191914">
                <ele>20.810000</ele>
                <time>2017-10-29T03:20:18Z</time>
            </trkpt>
            <trkpt lon="101.359045" lat="14.191931">
                <ele>21.770000</ele>
                <time>2017-10-29T03:20:56Z</time>
            </trkpt>
            <trkpt lon="101.359054" lat="14.191933">
                <ele>20.320000</ele>
                <time>2017-10-29T03:21:18Z</time>
            </trkpt>
            <trkpt lon="101.359055" lat="14.191940">
                <ele>20.320000</ele>
                <time>2017-10-29T03:21:19Z</time>
            </trkpt>
            <trkpt lon="101.359067" lat="14.192036">
                <ele>20.810000</ele>
                <time>2017-10-29T03:21:24Z</time>
            </trkpt>
            <trkpt lon="101.359038" lat="14.192380">
                <ele>21.290000</ele>
                <time>2017-10-29T03:21:37Z</time>
            </trkpt>
            <trkpt lon="101.359017" lat="14.192580">
                <ele>21.770000</ele>
                <time>2017-10-29T03:21:50Z</time>
            </trkpt>
            <trkpt lon="101.359018" lat="14.192658">
                <ele>22.730000</ele>
                <time>2017-10-29T03:22:05Z</time>
            </trkpt>
            <trkpt lon="101.359011" lat="14.192756">
                <ele>24.170000</ele>
                <time>2017-10-29T03:22:20Z</time>
            </trkpt>
            <trkpt lon="101.358995" lat="14.192784">
                <ele>22.730000</ele>
                <time>2017-10-29T03:22:42Z</time>
            </trkpt>
            <trkpt lon="101.359015" lat="14.192788">
                <ele>21.290000</ele>
                <time>2017-10-29T03:23:12Z</time>
            </trkpt>
            <trkpt lon="101.359006" lat="14.192766">
                <ele>22.730000</ele>
                <time>2017-10-29T03:23:31Z</time>
            </trkpt>
            <trkpt lon="101.359007" lat="14.192650">
                <ele>22.250000</ele>
                <time>2017-10-29T03:23:40Z</time>
            </trkpt>
            <trkpt lon="101.359050" lat="14.192326">
                <ele>22.250000</ele>
                <time>2017-10-29T03:23:56Z</time>
            </trkpt>
            <trkpt lon="101.359050" lat="14.192109">
                <ele>21.770000</ele>
                <time>2017-10-29T03:24:09Z</time>
            </trkpt>
            <trkpt lon="101.359004" lat="14.191736">
                <ele>19.360000</ele>
                <time>2017-10-29T03:24:23Z</time>
            </trkpt>
            <trkpt lon="101.358926" lat="14.191278">
                <ele>16.000000</ele>
                <time>2017-10-29T03:24:40Z</time>
            </trkpt>
            <trkpt lon="101.358851" lat="14.190800">
                <ele>15.520000</ele>
                <time>2017-10-29T03:24:58Z</time>
            </trkpt>
            <trkpt lon="101.358762" lat="14.190441">
                <ele>15.040000</ele>
                <time>2017-10-29T03:25:12Z</time>
            </trkpt>
            <trkpt lon="101.358703" lat="14.190208">
                <ele>16.000000</ele>
                <time>2017-10-29T03:25:24Z</time>
            </trkpt>
            <trkpt lon="101.358609" lat="14.189856">
                <ele>15.520000</ele>
                <time>2017-10-29T03:25:39Z</time>
            </trkpt>
            <trkpt lon="101.358566" lat="14.189555">
                <ele>16.000000</ele>
                <time>2017-10-29T03:25:53Z</time>
            </trkpt>
            <trkpt lon="101.358585" lat="14.189573">
                <ele>16.480000</ele>
                <time>2017-10-29T03:26:06Z</time>
            </trkpt>
            <trkpt lon="101.358839" lat="14.189823">
                <ele>16.960000</ele>
                <time>2017-10-29T03:26:19Z</time>
            </trkpt>
            <trkpt lon="101.359312" lat="14.190297">
                <ele>16.960000</ele>
                <time>2017-10-29T03:26:36Z</time>
            </trkpt>
            <trkpt lon="101.359438" lat="14.190439">
                <ele>16.480000</ele>
                <time>2017-10-29T03:26:45Z</time>
            </trkpt>
            <trkpt lon="101.359454" lat="14.190453">
                <ele>16.480000</ele>
                <time>2017-10-29T03:26:52Z</time>
            </trkpt>
            <trkpt lon="101.359782" lat="14.190781">
                <ele>17.440000</ele>
                <time>2017-10-29T03:27:06Z</time>
            </trkpt>
            <trkpt lon="101.360473" lat="14.191476">
                <ele>17.440000</ele>
                <time>2017-10-29T03:27:28Z</time>
            </trkpt>
            <trkpt lon="101.361090" lat="14.192096">
                <ele>16.480000</ele>
                <time>2017-10-29T03:27:47Z</time>
            </trkpt>
            <trkpt lon="101.361404" lat="14.192437">
                <ele>17.920000</ele>
                <time>2017-10-29T03:27:57Z</time>
            </trkpt>
            <trkpt lon="101.361663" lat="14.192907">
                <ele>19.840000</ele>
                <time>2017-10-29T03:28:11Z</time>
            </trkpt>
            <trkpt lon="101.361700" lat="14.192943">
                <ele>19.840000</ele>
                <time>2017-10-29T03:28:21Z</time>
            </trkpt>
            <trkpt lon="101.361707" lat="14.192940">
                <ele>19.840000</ele>
                <time>2017-10-29T03:28:28Z</time>
            </trkpt>
            <trkpt lon="101.361717" lat="14.192902">
                <ele>19.360000</ele>
                <time>2017-10-29T03:28:31Z</time>
            </trkpt>
            <trkpt lon="101.361706" lat="14.192885">
                <ele>18.880000</ele>
                <time>2017-10-29T03:28:32Z</time>
            </trkpt>
            <trkpt lon="101.361452" lat="14.192441">
                <ele>18.880000</ele>
                <time>2017-10-29T03:28:49Z</time>
            </trkpt>
            <trkpt lon="101.361243" lat="14.192174">
                <ele>17.920000</ele>
                <time>2017-10-29T03:29:02Z</time>
            </trkpt>
            <trkpt lon="101.361230" lat="14.192175">
                <ele>17.920000</ele>
                <time>2017-10-29T03:29:08Z</time>
            </trkpt>
            <trkpt lon="101.361167" lat="14.192196">
                <ele>18.400000</ele>
                <time>2017-10-29T03:29:12Z</time>
            </trkpt>
            <trkpt lon="101.360735" lat="14.192212">
                <ele>19.360000</ele>
                <time>2017-10-29T03:29:24Z</time>
            </trkpt>
            <trkpt lon="101.360590" lat="14.192218">
                <ele>18.880000</ele>
                <time>2017-10-29T03:29:28Z</time>
            </trkpt>
            <trkpt lon="101.360402" lat="14.192316">
                <ele>18.400000</ele>
                <time>2017-10-29T03:29:33Z</time>
            </trkpt>
            <trkpt lon="101.360410" lat="14.192424">
                <ele>17.920000</ele>
                <time>2017-10-29T03:29:37Z</time>
            </trkpt>
            <trkpt lon="101.360653" lat="14.192703">
                <ele>18.400000</ele>
                <time>2017-10-29T03:29:47Z</time>
            </trkpt>
            <trkpt lon="101.360412" lat="14.192824">
                <ele>19.840000</ele>
                <time>2017-10-29T03:29:55Z</time>
            </trkpt>
            <trkpt lon="101.360388" lat="14.192827">
                <ele>20.320000</ele>
                <time>2017-10-29T03:29:56Z</time>
            </trkpt>
            <trkpt lon="101.360028" lat="14.193110">
                <ele>20.320000</ele>
                <time>2017-10-29T03:30:09Z</time>
            </trkpt>
            <trkpt lon="101.360060" lat="14.193262">
                <ele>19.840000</ele>
                <time>2017-10-29T03:30:13Z</time>
            </trkpt>
            <trkpt lon="101.360321" lat="14.193339">
                <ele>18.400000</ele>
                <time>2017-10-29T03:30:20Z</time>
            </trkpt>
            <trkpt lon="101.360447" lat="14.193447">
                <ele>17.920000</ele>
                <time>2017-10-29T03:30:24Z</time>
            </trkpt>
            <trkpt lon="101.360510" lat="14.193557">
                <ele>17.440000</ele>
                <time>2017-10-29T03:30:27Z</time>
            </trkpt>
            <trkpt lon="101.360524" lat="14.193636">
                <ele>16.960000</ele>
                <time>2017-10-29T03:30:29Z</time>
            </trkpt>
            <trkpt lon="101.360619" lat="14.193739">
                <ele>16.000000</ele>
                <time>2017-10-29T03:30:33Z</time>
            </trkpt>
            <trkpt lon="101.360622" lat="14.193769">
                <ele>16.480000</ele>
                <time>2017-10-29T03:30:34Z</time>
            </trkpt>
            <trkpt lon="101.360623" lat="14.193795">
                <ele>16.480000</ele>
                <time>2017-10-29T03:30:35Z</time>
            </trkpt>
            <trkpt lon="101.360602" lat="14.193896">
                <ele>16.480000</ele>
                <time>2017-10-29T03:30:46Z</time>
            </trkpt>
            <trkpt lon="101.360585" lat="14.193897">
                <ele>16.960000</ele>
                <time>2017-10-29T03:30:48Z</time>
            </trkpt>
            <trkpt lon="101.360458" lat="14.193921">
                <ele>17.440000</ele>
                <time>2017-10-29T03:30:56Z</time>
            </trkpt>
            <trkpt lon="101.360297" lat="14.194272">
                <ele>17.440000</ele>
                <time>2017-10-29T03:31:12Z</time>
            </trkpt>
            <trkpt lon="101.360299" lat="14.194700">
                <ele>16.480000</ele>
                <time>2017-10-29T03:31:28Z</time>
            </trkpt>
            <trkpt lon="101.360312" lat="14.195064">
                <ele>16.960000</ele>
                <time>2017-10-29T03:31:44Z</time>
            </trkpt>
            <trkpt lon="101.360321" lat="14.195113">
                <ele>16.960000</ele>
                <time>2017-10-29T03:31:56Z</time>
            </trkpt>
            <trkpt lon="101.360324" lat="14.195131">
                <ele>16.480000</ele>
                <time>2017-10-29T03:32:17Z</time>
            </trkpt>
            <trkpt lon="101.360328" lat="14.195115">
                <ele>17.440000</ele>
                <time>2017-10-29T03:32:39Z</time>
            </trkpt>
            <trkpt lon="101.360324" lat="14.195131">
                <ele>16.960000</ele>
                <time>2017-10-29T03:33:00Z</time>
            </trkpt>
            <trkpt lon="101.360313" lat="14.195145">
                <ele>16.960000</ele>
                <time>2017-10-29T03:33:10Z</time>
            </trkpt>
            <trkpt lon="101.360325" lat="14.195298">
                <ele>16.960000</ele>
                <time>2017-10-29T03:33:24Z</time>
            </trkpt>
            <trkpt lon="101.360317" lat="14.195348">
                <ele>16.480000</ele>
                <time>2017-10-29T03:33:40Z</time>
            </trkpt>
            <trkpt lon="101.360296" lat="14.195363">
                <ele>16.960000</ele>
                <time>2017-10-29T03:33:45Z</time>
            </trkpt>
            <trkpt lon="101.360211" lat="14.195430">
                <ele>16.960000</ele>
                <time>2017-10-29T03:33:52Z</time>
            </trkpt>
            <trkpt lon="101.360122" lat="14.195502">
                <ele>17.920000</ele>
                <time>2017-10-29T03:34:04Z</time>
            </trkpt>
            <trkpt lon="101.360031" lat="14.195554">
                <ele>17.920000</ele>
                <time>2017-10-29T03:34:15Z</time>
            </trkpt>
            <trkpt lon="101.359963" lat="14.195582">
                <ele>16.960000</ele>
                <time>2017-10-29T03:34:26Z</time>
            </trkpt>
            <trkpt lon="101.359847" lat="14.195642">
                <ele>17.920000</ele>
                <time>2017-10-29T03:34:37Z</time>
            </trkpt>
            <trkpt lon="101.359711" lat="14.195742">
                <ele>17.920000</ele>
                <time>2017-10-29T03:34:45Z</time>
            </trkpt>
            <trkpt lon="101.359722" lat="14.195773">
                <ele>17.920000</ele>
                <time>2017-10-29T03:34:47Z</time>
            </trkpt>
            <trkpt lon="101.359730" lat="14.195810">
                <ele>17.440000</ele>
                <time>2017-10-29T03:34:49Z</time>
            </trkpt>
            <trkpt lon="101.359791" lat="14.196165">
                <ele>18.400000</ele>
                <time>2017-10-29T03:35:05Z</time>
            </trkpt>
            <trkpt lon="101.359881" lat="14.196612">
                <ele>19.360000</ele>
                <time>2017-10-29T03:35:22Z</time>
            </trkpt>
            <trkpt lon="101.359971" lat="14.197079">
                <ele>18.880000</ele>
                <time>2017-10-29T03:35:39Z</time>
            </trkpt>
            <trkpt lon="101.360037" lat="14.197393">
                <ele>19.360000</ele>
                <time>2017-10-29T03:35:52Z</time>
            </trkpt>
            <trkpt lon="101.360038" lat="14.197433">
                <ele>19.840000</ele>
                <time>2017-10-29T03:35:54Z</time>
            </trkpt>
            <trkpt lon="101.360030" lat="14.197447">
                <ele>19.840000</ele>
                <time>2017-10-29T03:35:55Z</time>
            </trkpt>
            <trkpt lon="101.360022" lat="14.197462">
                <ele>20.320000</ele>
                <time>2017-10-29T03:35:56Z</time>
            </trkpt>
            <trkpt lon="101.360018" lat="14.197480">
                <ele>20.320000</ele>
                <time>2017-10-29T03:35:57Z</time>
            </trkpt>
            <trkpt lon="101.360019" lat="14.197502">
                <ele>20.320000</ele>
                <time>2017-10-29T03:35:58Z</time>
            </trkpt>
            <trkpt lon="101.360023" lat="14.197525">
                <ele>20.320000</ele>
                <time>2017-10-29T03:35:59Z</time>
            </trkpt>
            <trkpt lon="101.360132" lat="14.197908">
                <ele>21.290000</ele>
                <time>2017-10-29T03:36:14Z</time>
            </trkpt>
            <trkpt lon="101.360248" lat="14.198246">
                <ele>20.320000</ele>
                <time>2017-10-29T03:36:29Z</time>
            </trkpt>
            <trkpt lon="101.360298" lat="14.198385">
                <ele>21.290000</ele>
                <time>2017-10-29T03:36:41Z</time>
            </trkpt>
            <trkpt lon="101.360274" lat="14.198502">
                <ele>23.210000</ele>
                <time>2017-10-29T03:36:55Z</time>
            </trkpt>
            <trkpt lon="101.360265" lat="14.198508">
                <ele>23.210000</ele>
                <time>2017-10-29T03:36:56Z</time>
            </trkpt>
            <trkpt lon="101.360251" lat="14.198513">
                <ele>23.690000</ele>
                <time>2017-10-29T03:36:57Z</time>
            </trkpt>
            <trkpt lon="101.360125" lat="14.198535">
                <ele>25.610000</ele>
                <time>2017-10-29T03:37:08Z</time>
            </trkpt>
            <trkpt lon="101.360049" lat="14.198503">
                <ele>24.650000</ele>
                <time>2017-10-29T03:37:21Z</time>
            </trkpt>
            <trkpt lon="101.359979" lat="14.198485">
                <ele>25.130000</ele>
                <time>2017-10-29T03:37:35Z</time>
            </trkpt>
            <trkpt lon="101.359920" lat="14.198499">
                <ele>24.170000</ele>
                <time>2017-10-29T03:37:45Z</time>
            </trkpt>
            <trkpt lon="101.359908" lat="14.198505">
                <ele>24.170000</ele>
                <time>2017-10-29T03:37:46Z</time>
            </trkpt>
            <trkpt lon="101.359704" lat="14.198593">
                <ele>24.650000</ele>
                <time>2017-10-29T03:37:56Z</time>
            </trkpt>
            <trkpt lon="101.359687" lat="14.198607">
                <ele>24.650000</ele>
                <time>2017-10-29T03:37:57Z</time>
            </trkpt>
            <trkpt lon="101.359683" lat="14.198651">
                <ele>25.130000</ele>
                <time>2017-10-29T03:37:59Z</time>
            </trkpt>
            <trkpt lon="101.359820" lat="14.199090">
                <ele>25.130000</ele>
                <time>2017-10-29T03:38:15Z</time>
            </trkpt>
            <trkpt lon="101.360014" lat="14.199777">
                <ele>26.570000</ele>
                <time>2017-10-29T03:38:33Z</time>
            </trkpt>
            <trkpt lon="101.360045" lat="14.199994">
                <ele>26.570000</ele>
                <time>2017-10-29T03:38:44Z</time>
            </trkpt>
            <trkpt lon="101.360056" lat="14.200086">
                <ele>26.570000</ele>
                <time>2017-10-29T03:38:57Z</time>
            </trkpt>
            <trkpt lon="101.360036" lat="14.200140">
                <ele>27.530000</ele>
                <time>2017-10-29T03:39:13Z</time>
            </trkpt>
            <trkpt lon="101.359988" lat="14.200215">
                <ele>27.530000</ele>
                <time>2017-10-29T03:39:26Z</time>
            </trkpt>
            <trkpt lon="101.359994" lat="14.200325">
                <ele>27.530000</ele>
                <time>2017-10-29T03:39:40Z</time>
            </trkpt>
            <trkpt lon="101.359999" lat="14.200502">
                <ele>26.570000</ele>
                <time>2017-10-29T03:39:55Z</time>
            </trkpt>
            <trkpt lon="101.360002" lat="14.200539">
                <ele>26.090000</ele>
                <time>2017-10-29T03:39:58Z</time>
            </trkpt>
            <trkpt lon="101.360046" lat="14.200696">
                <ele>25.610000</ele>
                <time>2017-10-29T03:40:15Z</time>
            </trkpt>
            <trkpt lon="101.360067" lat="14.200722">
                <ele>25.130000</ele>
                <time>2017-10-29T03:40:19Z</time>
            </trkpt>
            <trkpt lon="101.360091" lat="14.200814">
                <ele>24.650000</ele>
                <time>2017-10-29T03:40:27Z</time>
            </trkpt>
            <trkpt lon="101.360096" lat="14.200975">
                <ele>23.690000</ele>
                <time>2017-10-29T03:40:45Z</time>
            </trkpt>
            <trkpt lon="101.360126" lat="14.201000">
                <ele>23.210000</ele>
                <time>2017-10-29T03:41:08Z</time>
            </trkpt>
            <trkpt lon="101.360142" lat="14.201009">
                <ele>21.290000</ele>
                <time>2017-10-29T03:41:24Z</time>
            </trkpt>
            <trkpt lon="101.360141" lat="14.201010">
                <ele>20.810000</ele>
                <time>2017-10-29T03:41:53Z</time>
            </trkpt>
            <trkpt lon="101.360157" lat="14.201011">
                <ele>18.400000</ele>
                <time>2017-10-29T03:42:23Z</time>
            </trkpt>
            <trkpt lon="101.360155" lat="14.201003">
                <ele>21.290000</ele>
                <time>2017-10-29T03:42:58Z</time>
            </trkpt>
            <trkpt lon="101.360164" lat="14.201002">
                <ele>20.810000</ele>
                <time>2017-10-29T03:43:21Z</time>
            </trkpt>
            <trkpt lon="101.360152" lat="14.201027">
                <ele>22.730000</ele>
                <time>2017-10-29T03:43:58Z</time>
            </trkpt>
            <trkpt lon="101.360137" lat="14.201020">
                <ele>22.250000</ele>
                <time>2017-10-29T03:44:25Z</time>
            </trkpt>
            <trkpt lon="101.360136" lat="14.201012">
                <ele>22.250000</ele>
                <time>2017-10-29T03:44:56Z</time>
            </trkpt>
            <trkpt lon="101.360128" lat="14.201015">
                <ele>22.730000</ele>
                <time>2017-10-29T03:45:26Z</time>
            </trkpt>
            <trkpt lon="101.360134" lat="14.200995">
                <ele>22.730000</ele>
                <time>2017-10-29T03:46:04Z</time>
            </trkpt>
            <trkpt lon="101.360149" lat="14.201004">
                <ele>23.690000</ele>
                <time>2017-10-29T03:46:41Z</time>
            </trkpt>
            <trkpt lon="101.360142" lat="14.201008">
                <ele>22.250000</ele>
                <time>2017-10-29T03:47:14Z</time>
            </trkpt>
            <trkpt lon="101.360145" lat="14.201014">
                <ele>21.290000</ele>
                <time>2017-10-29T03:47:48Z</time>
            </trkpt>
            <trkpt lon="101.360164" lat="14.201030">
                <ele>20.810000</ele>
                <time>2017-10-29T03:48:07Z</time>
            </trkpt>
            <trkpt lon="101.360145" lat="14.201028">
                <ele>21.770000</ele>
                <time>2017-10-29T03:48:21Z</time>
            </trkpt>
            <trkpt lon="101.360111" lat="14.201012">
                <ele>22.250000</ele>
                <time>2017-10-29T03:48:43Z</time>
            </trkpt>
            <trkpt lon="101.360100" lat="14.200997">
                <ele>21.770000</ele>
                <time>2017-10-29T03:48:48Z</time>
            </trkpt>
            <trkpt lon="101.360065" lat="14.200849">
                <ele>20.810000</ele>
                <time>2017-10-29T03:49:02Z</time>
            </trkpt>
            <trkpt lon="101.360057" lat="14.200846">
                <ele>20.810000</ele>
                <time>2017-10-29T03:49:03Z</time>
            </trkpt>
            <trkpt lon="101.360030" lat="14.200837">
                <ele>21.290000</ele>
                <time>2017-10-29T03:49:06Z</time>
            </trkpt>
            <trkpt lon="101.360018" lat="14.200774">
                <ele>21.770000</ele>
                <time>2017-10-29T03:49:13Z</time>
            </trkpt>
            <trkpt lon="101.360008" lat="14.200675">
                <ele>22.250000</ele>
                <time>2017-10-29T03:49:23Z</time>
            </trkpt>
            <trkpt lon="101.359993" lat="14.200499">
                <ele>19.840000</ele>
                <time>2017-10-29T03:49:39Z</time>
            </trkpt>
            <trkpt lon="101.359986" lat="14.200319">
                <ele>19.840000</ele>
                <time>2017-10-29T03:49:53Z</time>
            </trkpt>
            <trkpt lon="101.359956" lat="14.200133">
                <ele>21.290000</ele>
                <time>2017-10-29T03:50:09Z</time>
            </trkpt>
            <trkpt lon="101.359983" lat="14.200022">
                <ele>21.770000</ele>
                <time>2017-10-29T03:50:20Z</time>
            </trkpt>
            <trkpt lon="101.360011" lat="14.199991">
                <ele>23.210000</ele>
                <time>2017-10-29T03:50:24Z</time>
            </trkpt>
            <trkpt lon="101.360018" lat="14.199958">
                <ele>23.690000</ele>
                <time>2017-10-29T03:50:27Z</time>
            </trkpt>
            <trkpt lon="101.359966" lat="14.199605">
                <ele>23.210000</ele>
                <time>2017-10-29T03:50:39Z</time>
            </trkpt>
            <trkpt lon="101.359804" lat="14.199056">
                <ele>22.730000</ele>
                <time>2017-10-29T03:50:54Z</time>
            </trkpt>
            <trkpt lon="101.359618" lat="14.198641">
                <ele>23.210000</ele>
                <time>2017-10-29T03:51:07Z</time>
            </trkpt>
            <trkpt lon="101.359585" lat="14.198631">
                <ele>22.730000</ele>
                <time>2017-10-29T03:51:08Z</time>
            </trkpt>
            <trkpt lon="101.359550" lat="14.198629">
                <ele>22.730000</ele>
                <time>2017-10-29T03:51:09Z</time>
            </trkpt>
            <trkpt lon="101.359516" lat="14.198635">
                <ele>22.730000</ele>
                <time>2017-10-29T03:51:10Z</time>
            </trkpt>
            <trkpt lon="101.359487" lat="14.198645">
                <ele>22.250000</ele>
                <time>2017-10-29T03:51:11Z</time>
            </trkpt>
            <trkpt lon="101.359465" lat="14.198655">
                <ele>22.250000</ele>
                <time>2017-10-29T03:51:12Z</time>
            </trkpt>
            <trkpt lon="101.359361" lat="14.198682">
                <ele>20.810000</ele>
                <time>2017-10-29T03:51:23Z</time>
            </trkpt>
            <trkpt lon="101.359346" lat="14.198685">
                <ele>20.810000</ele>
                <time>2017-10-29T03:51:24Z</time>
            </trkpt>
            <trkpt lon="101.359262" lat="14.198705">
                <ele>20.810000</ele>
                <time>2017-10-29T03:51:38Z</time>
            </trkpt>
            <trkpt lon="101.359096" lat="14.198751">
                <ele>20.320000</ele>
                <time>2017-10-29T03:51:50Z</time>
            </trkpt>
            <trkpt lon="101.358726" lat="14.198840">
                <ele>19.360000</ele>
                <time>2017-10-29T03:52:05Z</time>
            </trkpt>
            <trkpt lon="101.358556" lat="14.198865">
                <ele>20.320000</ele>
                <time>2017-10-29T03:52:16Z</time>
            </trkpt>
            <trkpt lon="101.358531" lat="14.198864">
                <ele>20.320000</ele>
                <time>2017-10-29T03:52:17Z</time>
            </trkpt>
            <trkpt lon="101.358504" lat="14.198866">
                <ele>20.320000</ele>
                <time>2017-10-29T03:52:18Z</time>
            </trkpt>
            <trkpt lon="101.358099" lat="14.198764">
                <ele>19.840000</ele>
                <time>2017-10-29T03:52:31Z</time>
            </trkpt>
            <trkpt lon="101.357512" lat="14.198675">
                <ele>19.360000</ele>
                <time>2017-10-29T03:52:48Z</time>
            </trkpt>
            <trkpt lon="101.356930" lat="14.198714">
                <ele>23.210000</ele>
                <time>2017-10-29T03:53:03Z</time>
            </trkpt>
            <trkpt lon="101.356243" lat="14.198777">
                <ele>28.020000</ele>
                <time>2017-10-29T03:53:19Z</time>
            </trkpt>
            <trkpt lon="101.356200" lat="14.198785">
                <ele>27.530000</ele>
                <time>2017-10-29T03:53:20Z</time>
            </trkpt>
            <trkpt lon="101.356155" lat="14.198801">
                <ele>27.530000</ele>
                <time>2017-10-29T03:53:21Z</time>
            </trkpt>
            <trkpt lon="101.356120" lat="14.198824">
                <ele>27.530000</ele>
                <time>2017-10-29T03:53:22Z</time>
            </trkpt>
            <trkpt lon="101.356091" lat="14.198856">
                <ele>27.530000</ele>
                <time>2017-10-29T03:53:23Z</time>
            </trkpt>
            <trkpt lon="101.356070" lat="14.198895">
                <ele>27.530000</ele>
                <time>2017-10-29T03:53:24Z</time>
            </trkpt>
            <trkpt lon="101.356055" lat="14.198935">
                <ele>27.050000</ele>
                <time>2017-10-29T03:53:25Z</time>
            </trkpt>
            <trkpt lon="101.356044" lat="14.198975">
                <ele>27.050000</ele>
                <time>2017-10-29T03:53:26Z</time>
            </trkpt>
            <trkpt lon="101.356031" lat="14.199013">
                <ele>27.050000</ele>
                <time>2017-10-29T03:53:27Z</time>
            </trkpt>
            <trkpt lon="101.355889" lat="14.199274">
                <ele>26.090000</ele>
                <time>2017-10-29T03:53:37Z</time>
            </trkpt>
            <trkpt lon="101.355854" lat="14.199274">
                <ele>26.090000</ele>
                <time>2017-10-29T03:53:38Z</time>
            </trkpt>
            <trkpt lon="101.355822" lat="14.199270">
                <ele>26.090000</ele>
                <time>2017-10-29T03:53:39Z</time>
            </trkpt>
            <trkpt lon="101.355795" lat="14.199265">
                <ele>26.090000</ele>
                <time>2017-10-29T03:53:40Z</time>
            </trkpt>
            <trkpt lon="101.355770" lat="14.199259">
                <ele>26.570000</ele>
                <time>2017-10-29T03:53:41Z</time>
            </trkpt>
            <trkpt lon="101.355745" lat="14.199252">
                <ele>26.570000</ele>
                <time>2017-10-29T03:53:42Z</time>
            </trkpt>
            <trkpt lon="101.355416" lat="14.199168">
                <ele>26.090000</ele>
                <time>2017-10-29T03:53:54Z</time>
            </trkpt>
            <trkpt lon="101.354981" lat="14.199093">
                <ele>21.290000</ele>
                <time>2017-10-29T03:54:05Z</time>
            </trkpt>
            <trkpt lon="101.354401" lat="14.198994">
                <ele>21.290000</ele>
                <time>2017-10-29T03:54:21Z</time>
            </trkpt>
            <trkpt lon="101.353837" lat="14.198693">
                <ele>20.320000</ele>
                <time>2017-10-29T03:54:37Z</time>
            </trkpt>
            <trkpt lon="101.353396" lat="14.198419">
                <ele>18.400000</ele>
                <time>2017-10-29T03:54:51Z</time>
            </trkpt>
            <trkpt lon="101.353364" lat="14.198429">
                <ele>18.400000</ele>
                <time>2017-10-29T03:54:52Z</time>
            </trkpt>
            <trkpt lon="101.353333" lat="14.198444">
                <ele>18.400000</ele>
                <time>2017-10-29T03:54:53Z</time>
            </trkpt>
            <trkpt lon="101.353261" lat="14.198482">
                <ele>18.400000</ele>
                <time>2017-10-29T03:54:55Z</time>
            </trkpt>
            <trkpt lon="101.352764" lat="14.198723">
                <ele>17.920000</ele>
                <time>2017-10-29T03:55:08Z</time>
            </trkpt>
            <trkpt lon="101.352722" lat="14.198735">
                <ele>17.920000</ele>
                <time>2017-10-29T03:55:09Z</time>
            </trkpt>
            <trkpt lon="101.352678" lat="14.198746">
                <ele>17.920000</ele>
                <time>2017-10-29T03:55:10Z</time>
            </trkpt>
            <trkpt lon="101.352637" lat="14.198757">
                <ele>17.920000</ele>
                <time>2017-10-29T03:55:11Z</time>
            </trkpt>
            <trkpt lon="101.352597" lat="14.198761">
                <ele>17.440000</ele>
                <time>2017-10-29T03:55:12Z</time>
            </trkpt>
            <trkpt lon="101.352557" lat="14.198761">
                <ele>17.440000</ele>
                <time>2017-10-29T03:55:13Z</time>
            </trkpt>
            <trkpt lon="101.352440" lat="14.198731">
                <ele>16.960000</ele>
                <time>2017-10-29T03:55:16Z</time>
            </trkpt>
            <trkpt lon="101.352406" lat="14.198704">
                <ele>16.960000</ele>
                <time>2017-10-29T03:55:17Z</time>
            </trkpt>
            <trkpt lon="101.352374" lat="14.198672">
                <ele>16.960000</ele>
                <time>2017-10-29T03:55:18Z</time>
            </trkpt>
            <trkpt lon="101.352209" lat="14.198477">
                <ele>16.960000</ele>
                <time>2017-10-29T03:55:24Z</time>
            </trkpt>
            <trkpt lon="101.352045" lat="14.198280">
                <ele>16.960000</ele>
                <time>2017-10-29T03:55:30Z</time>
            </trkpt>
            <trkpt lon="101.352018" lat="14.198248">
                <ele>16.960000</ele>
                <time>2017-10-29T03:55:31Z</time>
            </trkpt>
            <trkpt lon="101.351710" lat="14.198000">
                <ele>16.000000</ele>
                <time>2017-10-29T03:55:40Z</time>
            </trkpt>
            <trkpt lon="101.351676" lat="14.197975">
                <ele>16.000000</ele>
                <time>2017-10-29T03:55:41Z</time>
            </trkpt>
            <trkpt lon="101.351161" lat="14.197519">
                <ele>16.480000</ele>
                <time>2017-10-29T03:55:57Z</time>
            </trkpt>
            <trkpt lon="101.351124" lat="14.197494">
                <ele>16.960000</ele>
                <time>2017-10-29T03:55:58Z</time>
            </trkpt>
            <trkpt lon="101.351086" lat="14.197473">
                <ele>16.960000</ele>
                <time>2017-10-29T03:55:59Z</time>
            </trkpt>
            <trkpt lon="101.351045" lat="14.197454">
                <ele>17.440000</ele>
                <time>2017-10-29T03:56:00Z</time>
            </trkpt>
            <trkpt lon="101.351004" lat="14.197436">
                <ele>17.440000</ele>
                <time>2017-10-29T03:56:01Z</time>
            </trkpt>
            <trkpt lon="101.350921" lat="14.197397">
                <ele>17.920000</ele>
                <time>2017-10-29T03:56:03Z</time>
            </trkpt>
            <trkpt lon="101.350845" lat="14.197349">
                <ele>18.400000</ele>
                <time>2017-10-29T03:56:05Z</time>
            </trkpt>
            <trkpt lon="101.350816" lat="14.197322">
                <ele>18.400000</ele>
                <time>2017-10-29T03:56:06Z</time>
            </trkpt>
            <trkpt lon="101.350701" lat="14.197201">
                <ele>18.400000</ele>
                <time>2017-10-29T03:56:10Z</time>
            </trkpt>
            <trkpt lon="101.350663" lat="14.197175">
                <ele>17.920000</ele>
                <time>2017-10-29T03:56:11Z</time>
            </trkpt>
            <trkpt lon="101.350619" lat="14.197156">
                <ele>17.920000</ele>
                <time>2017-10-29T03:56:12Z</time>
            </trkpt>
            <trkpt lon="101.350574" lat="14.197142">
                <ele>17.440000</ele>
                <time>2017-10-29T03:56:13Z</time>
            </trkpt>
            <trkpt lon="101.350528" lat="14.197133">
                <ele>17.440000</ele>
                <time>2017-10-29T03:56:14Z</time>
            </trkpt>
            <trkpt lon="101.350146" lat="14.197054">
                <ele>17.440000</ele>
                <time>2017-10-29T03:56:23Z</time>
            </trkpt>
            <trkpt lon="101.350100" lat="14.197056">
                <ele>17.440000</ele>
                <time>2017-10-29T03:56:24Z</time>
            </trkpt>
            <trkpt lon="101.349645" lat="14.197107">
                <ele>16.480000</ele>
                <time>2017-10-29T03:56:34Z</time>
            </trkpt>
            <trkpt lon="101.349508" lat="14.197136">
                <ele>16.000000</ele>
                <time>2017-10-29T03:56:37Z</time>
            </trkpt>
            <trkpt lon="101.349215" lat="14.197159">
                <ele>16.960000</ele>
                <time>2017-10-29T03:56:43Z</time>
            </trkpt>
            <trkpt lon="101.349169" lat="14.197153">
                <ele>16.960000</ele>
                <time>2017-10-29T03:56:44Z</time>
            </trkpt>
            <trkpt lon="101.349125" lat="14.197140">
                <ele>16.960000</ele>
                <time>2017-10-29T03:56:45Z</time>
            </trkpt>
            <trkpt lon="101.349085" lat="14.197120">
                <ele>16.960000</ele>
                <time>2017-10-29T03:56:46Z</time>
            </trkpt>
            <trkpt lon="101.349050" lat="14.197092">
                <ele>16.960000</ele>
                <time>2017-10-29T03:56:47Z</time>
            </trkpt>
            <trkpt lon="101.349022" lat="14.197055">
                <ele>16.960000</ele>
                <time>2017-10-29T03:56:48Z</time>
            </trkpt>
            <trkpt lon="101.349001" lat="14.197014">
                <ele>16.960000</ele>
                <time>2017-10-29T03:56:49Z</time>
            </trkpt>
            <trkpt lon="101.348985" lat="14.196972">
                <ele>16.960000</ele>
                <time>2017-10-29T03:56:50Z</time>
            </trkpt>
            <trkpt lon="101.348971" lat="14.196928">
                <ele>16.960000</ele>
                <time>2017-10-29T03:56:51Z</time>
            </trkpt>
            <trkpt lon="101.348835" lat="14.196523">
                <ele>15.040000</ele>
                <time>2017-10-29T03:57:01Z</time>
            </trkpt>
            <trkpt lon="101.348838" lat="14.196503">
                <ele>15.040000</ele>
                <time>2017-10-29T03:57:02Z</time>
            </trkpt>
            <trkpt lon="101.348841" lat="14.196491">
                <ele>15.040000</ele>
                <time>2017-10-29T03:57:03Z</time>
            </trkpt>
            <trkpt lon="101.348839" lat="14.196477">
                <ele>14.560000</ele>
                <time>2017-10-29T03:57:04Z</time>
            </trkpt>
            <trkpt lon="101.348831" lat="14.196465">
                <ele>14.560000</ele>
                <time>2017-10-29T03:57:05Z</time>
            </trkpt>
            <trkpt lon="101.348818" lat="14.196455">
                <ele>14.560000</ele>
                <time>2017-10-29T03:57:06Z</time>
            </trkpt>
            <trkpt lon="101.348807" lat="14.196440">
                <ele>14.080000</ele>
                <time>2017-10-29T03:57:07Z</time>
            </trkpt>
            <trkpt lon="101.348800" lat="14.196420">
                <ele>14.080000</ele>
                <time>2017-10-29T03:57:08Z</time>
            </trkpt>
            <trkpt lon="101.348792" lat="14.196397">
                <ele>13.600000</ele>
                <time>2017-10-29T03:57:09Z</time>
            </trkpt>
            <trkpt lon="101.348781" lat="14.196370">
                <ele>13.600000</ele>
                <time>2017-10-29T03:57:10Z</time>
            </trkpt>
            <trkpt lon="101.348588" lat="14.195957">
                <ele>12.150000</ele>
                <time>2017-10-29T03:57:25Z</time>
            </trkpt>
            <trkpt lon="101.348559" lat="14.195949">
                <ele>12.150000</ele>
                <time>2017-10-29T03:57:26Z</time>
            </trkpt>
            <trkpt lon="101.348531" lat="14.195952">
                <ele>12.150000</ele>
                <time>2017-10-29T03:57:27Z</time>
            </trkpt>
            <trkpt lon="101.348377" lat="14.196005">
                <ele>11.670000</ele>
                <time>2017-10-29T03:57:39Z</time>
            </trkpt>
            <trkpt lon="101.348192" lat="14.196078">
                <ele>14.080000</ele>
                <time>2017-10-29T03:57:57Z</time>
            </trkpt>
            <trkpt lon="101.348127" lat="14.196065">
                <ele>15.040000</ele>
                <time>2017-10-29T03:57:59Z</time>
            </trkpt>
            <trkpt lon="101.348081" lat="14.196019">
                <ele>15.040000</ele>
                <time>2017-10-29T03:58:01Z</time>
            </trkpt>
            <trkpt lon="101.347810" lat="14.195602">
                <ele>15.040000</ele>
                <time>2017-10-29T03:58:13Z</time>
            </trkpt>
            <trkpt lon="101.347342" lat="14.195112">
                <ele>14.080000</ele>
                <time>2017-10-29T03:58:27Z</time>
            </trkpt>
            <trkpt lon="101.347304" lat="14.195085">
                <ele>14.080000</ele>
                <time>2017-10-29T03:58:28Z</time>
            </trkpt>
            <trkpt lon="101.347261" lat="14.195070">
                <ele>13.600000</ele>
                <time>2017-10-29T03:58:29Z</time>
            </trkpt>
            <trkpt lon="101.347216" lat="14.195069">
                <ele>13.600000</ele>
                <time>2017-10-29T03:58:30Z</time>
            </trkpt>
            <trkpt lon="101.347172" lat="14.195079">
                <ele>13.600000</ele>
                <time>2017-10-29T03:58:31Z</time>
            </trkpt>
            <trkpt lon="101.347129" lat="14.195094">
                <ele>13.600000</ele>
                <time>2017-10-29T03:58:32Z</time>
            </trkpt>
            <trkpt lon="101.347085" lat="14.195111">
                <ele>13.600000</ele>
                <time>2017-10-29T03:58:33Z</time>
            </trkpt>
            <trkpt lon="101.347039" lat="14.195124">
                <ele>13.600000</ele>
                <time>2017-10-29T03:58:34Z</time>
            </trkpt>
            <trkpt lon="101.346990" lat="14.195127">
                <ele>13.600000</ele>
                <time>2017-10-29T03:58:35Z</time>
            </trkpt>
            <trkpt lon="101.346943" lat="14.195116">
                <ele>13.120000</ele>
                <time>2017-10-29T03:58:36Z</time>
            </trkpt>
            <trkpt lon="101.346900" lat="14.195094">
                <ele>13.120000</ele>
                <time>2017-10-29T03:58:37Z</time>
            </trkpt>
            <trkpt lon="101.346859" lat="14.195067">
                <ele>12.630000</ele>
                <time>2017-10-29T03:58:38Z</time>
            </trkpt>
            <trkpt lon="101.346427" lat="14.194672">
                <ele>12.630000</ele>
                <time>2017-10-29T03:58:52Z</time>
            </trkpt>
            <trkpt lon="101.346402" lat="14.194632">
                <ele>12.630000</ele>
                <time>2017-10-29T03:58:53Z</time>
            </trkpt>
            <trkpt lon="101.346382" lat="14.194589">
                <ele>12.630000</ele>
                <time>2017-10-29T03:58:54Z</time>
            </trkpt>
            <trkpt lon="101.346124" lat="14.193992">
                <ele>13.600000</ele>
                <time>2017-10-29T03:59:07Z</time>
            </trkpt>
            <trkpt lon="101.346095" lat="14.193959">
                <ele>14.080000</ele>
                <time>2017-10-29T03:59:08Z</time>
            </trkpt>
            <trkpt lon="101.346060" lat="14.193932">
                <ele>14.080000</ele>
                <time>2017-10-29T03:59:09Z</time>
            </trkpt>
            <trkpt lon="101.346018" lat="14.193910">
                <ele>14.080000</ele>
                <time>2017-10-29T03:59:10Z</time>
            </trkpt>
            <trkpt lon="101.345975" lat="14.193892">
                <ele>14.080000</ele>
                <time>2017-10-29T03:59:11Z</time>
            </trkpt>
            <trkpt lon="101.345844" lat="14.193836">
                <ele>13.600000</ele>
                <time>2017-10-29T03:59:14Z</time>
            </trkpt>
            <trkpt lon="101.345807" lat="14.193809">
                <ele>13.600000</ele>
                <time>2017-10-29T03:59:15Z</time>
            </trkpt>
            <trkpt lon="101.345773" lat="14.193777">
                <ele>13.600000</ele>
                <time>2017-10-29T03:59:16Z</time>
            </trkpt>
            <trkpt lon="101.345458" lat="14.193478">
                <ele>13.120000</ele>
                <time>2017-10-29T03:59:25Z</time>
            </trkpt>
            <trkpt lon="101.345369" lat="14.193388">
                <ele>13.120000</ele>
                <time>2017-10-29T03:59:28Z</time>
            </trkpt>
            <trkpt lon="101.344992" lat="14.193205">
                <ele>13.600000</ele>
                <time>2017-10-29T03:59:40Z</time>
            </trkpt>
            <trkpt lon="101.344646" lat="14.193350">
                <ele>14.080000</ele>
                <time>2017-10-29T03:59:53Z</time>
            </trkpt>
            <trkpt lon="101.344205" lat="14.193809">
                <ele>13.600000</ele>
                <time>2017-10-29T04:00:08Z</time>
            </trkpt>
            <trkpt lon="101.343778" lat="14.194188">
                <ele>15.040000</ele>
                <time>2017-10-29T04:00:21Z</time>
            </trkpt>
            <trkpt lon="101.343316" lat="14.194496">
                <ele>17.440000</ele>
                <time>2017-10-29T04:00:36Z</time>
            </trkpt>
            <trkpt lon="101.343064" lat="14.194651">
                <ele>21.290000</ele>
                <time>2017-10-29T04:00:49Z</time>
            </trkpt>
            <trkpt lon="101.342715" lat="14.194689">
                <ele>24.650000</ele>
                <time>2017-10-29T04:01:03Z</time>
            </trkpt>
            <trkpt lon="101.342428" lat="14.194795">
                <ele>26.090000</ele>
                <time>2017-10-29T04:01:16Z</time>
            </trkpt>
            <trkpt lon="101.342081" lat="14.194906">
                <ele>27.050000</ele>
                <time>2017-10-29T04:01:29Z</time>
            </trkpt>
            <trkpt lon="101.341701" lat="14.195033">
                <ele>27.530000</ele>
                <time>2017-10-29T04:01:45Z</time>
            </trkpt>
            <trkpt lon="101.341284" lat="14.195195">
                <ele>27.050000</ele>
                <time>2017-10-29T04:02:00Z</time>
            </trkpt>
            <trkpt lon="101.341006" lat="14.195226">
                <ele>26.090000</ele>
                <time>2017-10-29T04:02:08Z</time>
            </trkpt>
            <trkpt lon="101.340579" lat="14.194786">
                <ele>19.840000</ele>
                <time>2017-10-29T04:02:17Z</time>
            </trkpt>
            <trkpt lon="101.340213" lat="14.194118">
                <ele>18.400000</ele>
                <time>2017-10-29T04:02:30Z</time>
            </trkpt>
            <trkpt lon="101.339816" lat="14.193239">
                <ele>16.480000</ele>
                <time>2017-10-29T04:02:48Z</time>
            </trkpt>
            <trkpt lon="101.339678" lat="14.192798">
                <ele>16.000000</ele>
                <time>2017-10-29T04:02:56Z</time>
            </trkpt>
            <trkpt lon="101.339554" lat="14.192516">
                <ele>17.920000</ele>
                <time>2017-10-29T04:03:04Z</time>
            </trkpt>
            <trkpt lon="101.339474" lat="14.192236">
                <ele>17.440000</ele>
                <time>2017-10-29T04:03:15Z</time>
            </trkpt>
            <trkpt lon="101.339278" lat="14.191537">
                <ele>16.480000</ele>
                <time>2017-10-29T04:03:32Z</time>
            </trkpt>
            <trkpt lon="101.339265" lat="14.191494">
                <ele>16.480000</ele>
                <time>2017-10-29T04:03:33Z</time>
            </trkpt>
            <trkpt lon="101.339068" lat="14.190868">
                <ele>16.480000</ele>
                <time>2017-10-29T04:03:47Z</time>
            </trkpt>
            <trkpt lon="101.339218" lat="14.190547">
                <ele>17.440000</ele>
                <time>2017-10-29T04:03:56Z</time>
            </trkpt>
            <trkpt lon="101.339506" lat="14.190425">
                <ele>16.960000</ele>
                <time>2017-10-29T04:04:08Z</time>
            </trkpt>
            <trkpt lon="101.339504" lat="14.190417">
                <ele>16.960000</ele>
                <time>2017-10-29T04:04:10Z</time>
            </trkpt>
            <trkpt lon="101.339486" lat="14.190405">
                <ele>16.960000</ele>
                <time>2017-10-29T04:04:23Z</time>
            </trkpt>
            <trkpt lon="101.339465" lat="14.190417">
                <ele>17.920000</ele>
                <time>2017-10-29T04:04:46Z</time>
            </trkpt>
            <trkpt lon="101.339212" lat="14.190518">
                <ele>17.920000</ele>
                <time>2017-10-29T04:05:02Z</time>
            </trkpt>
            <trkpt lon="101.339026" lat="14.190738">
                <ele>19.840000</ele>
                <time>2017-10-29T04:05:18Z</time>
            </trkpt>
            <trkpt lon="101.339051" lat="14.190796">
                <ele>20.320000</ele>
                <time>2017-10-29T04:05:31Z</time>
            </trkpt>
            <trkpt lon="101.339052" lat="14.190809">
                <ele>19.840000</ele>
                <time>2017-10-29T04:06:06Z</time>
            </trkpt>
            <trkpt lon="101.339061" lat="14.190821">
                <ele>21.770000</ele>
                <time>2017-10-29T04:06:30Z</time>
            </trkpt>
            <trkpt lon="101.339069" lat="14.190816">
                <ele>21.290000</ele>
                <time>2017-10-29T04:07:02Z</time>
            </trkpt>
            <trkpt lon="101.339066" lat="14.190814">
                <ele>22.730000</ele>
                <time>2017-10-29T04:07:39Z</time>
            </trkpt>
            <trkpt lon="101.339132" lat="14.191111">
                <ele>21.770000</ele>
                <time>2017-10-29T04:07:51Z</time>
            </trkpt>
            <trkpt lon="101.339282" lat="14.191611">
                <ele>19.840000</ele>
                <time>2017-10-29T04:08:06Z</time>
            </trkpt>
            <trkpt lon="101.339445" lat="14.192124">
                <ele>20.810000</ele>
                <time>2017-10-29T04:08:20Z</time>
            </trkpt>
            <trkpt lon="101.339642" lat="14.192513">
                <ele>22.250000</ele>
                <time>2017-10-29T04:08:32Z</time>
            </trkpt>
            <trkpt lon="101.340107" lat="14.192858">
                <ele>21.290000</ele>
                <time>2017-10-29T04:08:45Z</time>
            </trkpt>
            <trkpt lon="101.340354" lat="14.192915">
                <ele>20.320000</ele>
                <time>2017-10-29T04:08:51Z</time>
            </trkpt>
            <trkpt lon="101.340873" lat="14.192768">
                <ele>19.840000</ele>
                <time>2017-10-29T04:09:02Z</time>
            </trkpt>
            <trkpt lon="101.341026" lat="14.192634">
                <ele>18.880000</ele>
                <time>2017-10-29T04:09:06Z</time>
            </trkpt>
            <trkpt lon="101.341523" lat="14.192278">
                <ele>17.920000</ele>
                <time>2017-10-29T04:09:21Z</time>
            </trkpt>
            <trkpt lon="101.341552" lat="14.192264">
                <ele>17.920000</ele>
                <time>2017-10-29T04:09:22Z</time>
            </trkpt>
            <trkpt lon="101.341811" lat="14.192453">
                <ele>16.000000</ele>
                <time>2017-10-29T04:09:32Z</time>
            </trkpt>
            <trkpt lon="101.342141" lat="14.192780">
                <ele>14.560000</ele>
                <time>2017-10-29T04:09:45Z</time>
            </trkpt>
            <trkpt lon="101.342506" lat="14.193039">
                <ele>13.600000</ele>
                <time>2017-10-29T04:09:59Z</time>
            </trkpt>
            <trkpt lon="101.342659" lat="14.193127">
                <ele>14.560000</ele>
                <time>2017-10-29T04:10:11Z</time>
            </trkpt>
            <trkpt lon="101.342749" lat="14.193247">
                <ele>15.040000</ele>
                <time>2017-10-29T04:10:25Z</time>
            </trkpt>
            <trkpt lon="101.342762" lat="14.193271">
                <ele>15.520000</ele>
                <time>2017-10-29T04:10:28Z</time>
            </trkpt>
            <trkpt lon="101.342818" lat="14.193352">
                <ele>15.520000</ele>
                <time>2017-10-29T04:10:40Z</time>
            </trkpt>
            <trkpt lon="101.342838" lat="14.193361">
                <ele>16.000000</ele>
                <time>2017-10-29T04:10:46Z</time>
            </trkpt>
            <trkpt lon="101.342938" lat="14.193412">
                <ele>17.440000</ele>
                <time>2017-10-29T04:11:01Z</time>
            </trkpt>
            <trkpt lon="101.343072" lat="14.193468">
                <ele>20.810000</ele>
                <time>2017-10-29T04:11:17Z</time>
            </trkpt>
            <trkpt lon="101.343286" lat="14.193627">
                <ele>23.210000</ele>
                <time>2017-10-29T04:11:29Z</time>
            </trkpt>
            <trkpt lon="101.343461" lat="14.193815">
                <ele>23.210000</ele>
                <time>2017-10-29T04:11:41Z</time>
            </trkpt>
            <trkpt lon="101.343522" lat="14.193955">
                <ele>23.210000</ele>
                <time>2017-10-29T04:11:53Z</time>
            </trkpt>
            <trkpt lon="101.343544" lat="14.194045">
                <ele>21.770000</ele>
                <time>2017-10-29T04:12:06Z</time>
            </trkpt>
            <trkpt lon="101.343563" lat="14.194112">
                <ele>20.320000</ele>
                <time>2017-10-29T04:12:13Z</time>
            </trkpt>
            <trkpt lon="101.343706" lat="14.194137">
                <ele>19.840000</ele>
                <time>2017-10-29T04:12:28Z</time>
            </trkpt>
            <trkpt lon="101.343771" lat="14.194150">
                <ele>18.880000</ele>
                <time>2017-10-29T04:12:43Z</time>
            </trkpt>
            <trkpt lon="101.343810" lat="14.194147">
                <ele>18.880000</ele>
                <time>2017-10-29T04:12:49Z</time>
            </trkpt>
            <trkpt lon="101.344053" lat="14.193994">
                <ele>17.440000</ele>
                <time>2017-10-29T04:13:00Z</time>
            </trkpt>
            <trkpt lon="101.344435" lat="14.193557">
                <ele>16.480000</ele>
                <time>2017-10-29T04:13:15Z</time>
            </trkpt>
            <trkpt lon="101.344821" lat="14.193225">
                <ele>15.520000</ele>
                <time>2017-10-29T04:13:29Z</time>
            </trkpt>
            <trkpt lon="101.345286" lat="14.192984">
                <ele>16.480000</ele>
                <time>2017-10-29T04:13:42Z</time>
            </trkpt>
            <trkpt lon="101.345373" lat="14.192848">
                <ele>16.480000</ele>
                <time>2017-10-29T04:13:47Z</time>
            </trkpt>
            <trkpt lon="101.345358" lat="14.192807">
                <ele>15.520000</ele>
                <time>2017-10-29T04:13:57Z</time>
            </trkpt>
            <trkpt lon="101.345354" lat="14.192797">
                <ele>17.440000</ele>
                <time>2017-10-29T04:14:24Z</time>
            </trkpt>
            <trkpt lon="101.345369" lat="14.192777">
                <ele>16.960000</ele>
                <time>2017-10-29T04:15:03Z</time>
            </trkpt>
            <trkpt lon="101.345357" lat="14.192790">
                <ele>18.880000</ele>
                <time>2017-10-29T04:15:56Z</time>
            </trkpt>
            <trkpt lon="101.345360" lat="14.192782">
                <ele>20.810000</ele>
                <time>2017-10-29T04:16:35Z</time>
            </trkpt>
            <trkpt lon="101.345372" lat="14.192764">
                <ele>21.770000</ele>
                <time>2017-10-29T04:17:24Z</time>
            </trkpt>
            <trkpt lon="101.345388" lat="14.192762">
                <ele>16.960000</ele>
                <time>2017-10-29T04:18:15Z</time>
            </trkpt>
            <trkpt lon="101.345360" lat="14.192810">
                <ele>18.880000</ele>
                <time>2017-10-29T04:19:12Z</time>
            </trkpt>
            <trkpt lon="101.345354" lat="14.192796">
                <ele>16.480000</ele>
                <time>2017-10-29T04:20:03Z</time>
            </trkpt>
            <trkpt lon="101.345355" lat="14.192805">
                <ele>16.960000</ele>
                <time>2017-10-29T04:20:46Z</time>
            </trkpt>
            <trkpt lon="101.345353" lat="14.192802">
                <ele>21.290000</ele>
                <time>2017-10-29T04:21:36Z</time>
            </trkpt>
            <trkpt lon="101.345380" lat="14.192777">
                <ele>21.290000</ele>
                <time>2017-10-29T04:22:13Z</time>
            </trkpt>
            <trkpt lon="101.345363" lat="14.192792">
                <ele>19.360000</ele>
                <time>2017-10-29T04:22:55Z</time>
            </trkpt>
            <trkpt lon="101.345368" lat="14.192806">
                <ele>20.320000</ele>
                <time>2017-10-29T04:23:41Z</time>
            </trkpt>
            <trkpt lon="101.345392" lat="14.192796">
                <ele>22.250000</ele>
                <time>2017-10-29T04:24:21Z</time>
            </trkpt>
            <trkpt lon="101.345380" lat="14.192786">
                <ele>20.320000</ele>
                <time>2017-10-29T04:25:00Z</time>
            </trkpt>
            <trkpt lon="101.345383" lat="14.192781">
                <ele>22.250000</ele>
                <time>2017-10-29T04:25:39Z</time>
            </trkpt>
            <trkpt lon="101.345393" lat="14.192809">
                <ele>21.290000</ele>
                <time>2017-10-29T04:26:26Z</time>
            </trkpt>
            <trkpt lon="101.345382" lat="14.192796">
                <ele>22.730000</ele>
                <time>2017-10-29T04:27:16Z</time>
            </trkpt>
            <trkpt lon="101.345402" lat="14.192771">
                <ele>22.730000</ele>
                <time>2017-10-29T04:28:06Z</time>
            </trkpt>
            <trkpt lon="101.345388" lat="14.192773">
                <ele>22.250000</ele>
                <time>2017-10-29T04:28:44Z</time>
            </trkpt>
            <trkpt lon="101.345382" lat="14.192769">
                <ele>21.770000</ele>
                <time>2017-10-29T04:28:49Z</time>
            </trkpt>
            <trkpt lon="101.345367" lat="14.192715">
                <ele>22.250000</ele>
                <time>2017-10-29T04:28:53Z</time>
            </trkpt>
            <trkpt lon="101.345355" lat="14.192697">
                <ele>22.250000</ele>
                <time>2017-10-29T04:28:54Z</time>
            </trkpt>
            <trkpt lon="101.345347" lat="14.192677">
                <ele>22.250000</ele>
                <time>2017-10-29T04:28:55Z</time>
            </trkpt>
            <trkpt lon="101.345340" lat="14.192656">
                <ele>22.730000</ele>
                <time>2017-10-29T04:28:56Z</time>
            </trkpt>
            <trkpt lon="101.345336" lat="14.192635">
                <ele>22.730000</ele>
                <time>2017-10-29T04:28:57Z</time>
            </trkpt>
            <trkpt lon="101.345331" lat="14.192612">
                <ele>23.210000</ele>
                <time>2017-10-29T04:28:58Z</time>
            </trkpt>
            <trkpt lon="101.345236" lat="14.192175">
                <ele>26.570000</ele>
                <time>2017-10-29T04:29:14Z</time>
            </trkpt>
            <trkpt lon="101.345277" lat="14.191736">
                <ele>27.530000</ele>
                <time>2017-10-29T04:29:28Z</time>
            </trkpt>
            <trkpt lon="101.345413" lat="14.191195">
                <ele>24.170000</ele>
                <time>2017-10-29T04:29:42Z</time>
            </trkpt>
            <trkpt lon="101.345324" lat="14.190641">
                <ele>23.690000</ele>
                <time>2017-10-29T04:29:56Z</time>
            </trkpt>
            <trkpt lon="101.345333" lat="14.190607">
                <ele>23.690000</ele>
                <time>2017-10-29T04:29:57Z</time>
            </trkpt>
            <trkpt lon="101.345358" lat="14.190585">
                <ele>23.690000</ele>
                <time>2017-10-29T04:29:58Z</time>
            </trkpt>
            <trkpt lon="101.345391" lat="14.190573">
                <ele>23.690000</ele>
                <time>2017-10-29T04:29:59Z</time>
            </trkpt>
            <trkpt lon="101.345743" lat="14.190486">
                <ele>23.210000</ele>
                <time>2017-10-29T04:30:11Z</time>
            </trkpt>
            <trkpt lon="101.346187" lat="14.190207">
                <ele>24.170000</ele>
                <time>2017-10-29T04:30:25Z</time>
            </trkpt>
            <trkpt lon="101.346672" lat="14.189885">
                <ele>23.690000</ele>
                <time>2017-10-29T04:30:38Z</time>
            </trkpt>
            <trkpt lon="101.346708" lat="14.189865">
                <ele>23.690000</ele>
                <time>2017-10-29T04:30:39Z</time>
            </trkpt>
            <trkpt lon="101.346748" lat="14.189850">
                <ele>23.690000</ele>
                <time>2017-10-29T04:30:40Z</time>
            </trkpt>
            <trkpt lon="101.347226" lat="14.189621">
                <ele>23.210000</ele>
                <time>2017-10-29T04:30:53Z</time>
            </trkpt>
            <trkpt lon="101.347524" lat="14.189097">
                <ele>22.730000</ele>
                <time>2017-10-29T04:31:07Z</time>
            </trkpt>
            <trkpt lon="101.347843" lat="14.188565">
                <ele>22.730000</ele>
                <time>2017-10-29T04:31:21Z</time>
            </trkpt>
            <trkpt lon="101.347865" lat="14.188529">
                <ele>22.730000</ele>
                <time>2017-10-29T04:31:22Z</time>
            </trkpt>
            <trkpt lon="101.347989" lat="14.188296">
                <ele>23.210000</ele>
                <time>2017-10-29T04:31:28Z</time>
            </trkpt>
            <trkpt lon="101.348410" lat="14.187580">
                <ele>19.840000</ele>
                <time>2017-10-29T04:31:47Z</time>
            </trkpt>
            <trkpt lon="101.348644" lat="14.187222">
                <ele>18.880000</ele>
                <time>2017-10-29T04:31:59Z</time>
            </trkpt>
            <trkpt lon="101.348674" lat="14.187220">
                <ele>18.880000</ele>
                <time>2017-10-29T04:32:00Z</time>
            </trkpt>
            <trkpt lon="101.348704" lat="14.187222">
                <ele>18.880000</ele>
                <time>2017-10-29T04:32:01Z</time>
            </trkpt>
            <trkpt lon="101.348736" lat="14.187224">
                <ele>18.400000</ele>
                <time>2017-10-29T04:32:02Z</time>
            </trkpt>
            <trkpt lon="101.348768" lat="14.187224">
                <ele>18.400000</ele>
                <time>2017-10-29T04:32:03Z</time>
            </trkpt>
            <trkpt lon="101.349161" lat="14.187448">
                <ele>16.480000</ele>
                <time>2017-10-29T04:32:16Z</time>
            </trkpt>
            <trkpt lon="101.349114" lat="14.187710">
                <ele>15.520000</ele>
                <time>2017-10-29T04:32:25Z</time>
            </trkpt>
            <trkpt lon="101.349288" lat="14.187987">
                <ele>16.000000</ele>
                <time>2017-10-29T04:32:35Z</time>
            </trkpt>
            <trkpt lon="101.349575" lat="14.188220">
                <ele>18.400000</ele>
                <time>2017-10-29T04:32:48Z</time>
            </trkpt>
            <trkpt lon="101.349720" lat="14.188487">
                <ele>17.440000</ele>
                <time>2017-10-29T04:32:59Z</time>
            </trkpt>
            <trkpt lon="101.349726" lat="14.188487">
                <ele>17.440000</ele>
                <time>2017-10-29T04:33:18Z</time>
            </trkpt>
            <trkpt lon="101.349737" lat="14.188470">
                <ele>16.000000</ele>
                <time>2017-10-29T04:33:47Z</time>
            </trkpt>
            <trkpt lon="101.349713" lat="14.188412">
                <ele>15.040000</ele>
                <time>2017-10-29T04:33:51Z</time>
            </trkpt>
            <trkpt lon="101.349498" lat="14.188165">
                <ele>14.560000</ele>
                <time>2017-10-29T04:34:02Z</time>
            </trkpt>
            <trkpt lon="101.349170" lat="14.187840">
                <ele>14.080000</ele>
                <time>2017-10-29T04:34:14Z</time>
            </trkpt>
            <trkpt lon="101.349188" lat="14.187551">
                <ele>14.080000</ele>
                <time>2017-10-29T04:34:23Z</time>
            </trkpt>
            <trkpt lon="101.349067" lat="14.187318">
                <ele>14.560000</ele>
                <time>2017-10-29T04:34:30Z</time>
            </trkpt>
            <trkpt lon="101.348853" lat="14.187216">
                <ele>14.080000</ele>
                <time>2017-10-29T04:34:42Z</time>
            </trkpt>
            <trkpt lon="101.348854" lat="14.187211">
                <ele>14.560000</ele>
                <time>2017-10-29T04:35:11Z</time>
            </trkpt>
            <trkpt lon="101.348873" lat="14.187212">
                <ele>15.520000</ele>
                <time>2017-10-29T04:35:39Z</time>
            </trkpt>
            <trkpt lon="101.348855" lat="14.187214">
                <ele>13.600000</ele>
                <time>2017-10-29T04:36:04Z</time>
            </trkpt>
            <trkpt lon="101.348677" lat="14.187178">
                <ele>12.630000</ele>
                <time>2017-10-29T04:36:14Z</time>
            </trkpt>
            <trkpt lon="101.348680" lat="14.187107">
                <ele>14.080000</ele>
                <time>2017-10-29T04:36:18Z</time>
            </trkpt>
            <trkpt lon="101.348696" lat="14.187086">
                <ele>14.560000</ele>
                <time>2017-10-29T04:36:19Z</time>
            </trkpt>
            <trkpt lon="101.348710" lat="14.187064">
                <ele>14.560000</ele>
                <time>2017-10-29T04:36:20Z</time>
            </trkpt>
            <trkpt lon="101.348726" lat="14.187037">
                <ele>15.040000</ele>
                <time>2017-10-29T04:36:21Z</time>
            </trkpt>
            <trkpt lon="101.348988" lat="14.186575">
                <ele>15.520000</ele>
                <time>2017-10-29T04:36:37Z</time>
            </trkpt>
            <trkpt lon="101.349303" lat="14.186022">
                <ele>16.000000</ele>
                <time>2017-10-29T04:36:54Z</time>
            </trkpt>
            <trkpt lon="101.349650" lat="14.185413">
                <ele>16.480000</ele>
                <time>2017-10-29T04:37:13Z</time>
            </trkpt>
            <trkpt lon="101.350109" lat="14.184595">
                <ele>15.520000</ele>
                <time>2017-10-29T04:37:31Z</time>
            </trkpt>
            <trkpt lon="101.350606" lat="14.183760">
                <ele>16.000000</ele>
                <time>2017-10-29T04:37:49Z</time>
            </trkpt>
            <trkpt lon="101.351157" lat="14.182966">
                <ele>16.000000</ele>
                <time>2017-10-29T04:38:07Z</time>
            </trkpt>
            <trkpt lon="101.351177" lat="14.182916">
                <ele>16.000000</ele>
                <time>2017-10-29T04:38:08Z</time>
            </trkpt>
            <trkpt lon="101.351212" lat="14.182219">
                <ele>16.000000</ele>
                <time>2017-10-29T04:38:21Z</time>
            </trkpt>
            <trkpt lon="101.351198" lat="14.182168">
                <ele>16.000000</ele>
                <time>2017-10-29T04:38:22Z</time>
            </trkpt>
            <trkpt lon="101.351178" lat="14.182117">
                <ele>16.000000</ele>
                <time>2017-10-29T04:38:23Z</time>
            </trkpt>
            <trkpt lon="101.351155" lat="14.182072">
                <ele>15.520000</ele>
                <time>2017-10-29T04:38:24Z</time>
            </trkpt>
            <trkpt lon="101.351129" lat="14.182028">
                <ele>15.520000</ele>
                <time>2017-10-29T04:38:25Z</time>
            </trkpt>
            <trkpt lon="101.351102" lat="14.181986">
                <ele>15.040000</ele>
                <time>2017-10-29T04:38:26Z</time>
            </trkpt>
            <trkpt lon="101.350933" lat="14.181745">
                <ele>14.560000</ele>
                <time>2017-10-29T04:38:33Z</time>
            </trkpt>
            <trkpt lon="101.350948" lat="14.181719">
                <ele>14.560000</ele>
                <time>2017-10-29T04:38:34Z</time>
            </trkpt>
            <trkpt lon="101.350973" lat="14.181695">
                <ele>14.560000</ele>
                <time>2017-10-29T04:38:35Z</time>
            </trkpt>
            <trkpt lon="101.351001" lat="14.181669">
                <ele>14.560000</ele>
                <time>2017-10-29T04:38:36Z</time>
            </trkpt>
            <trkpt lon="101.351034" lat="14.181636">
                <ele>14.080000</ele>
                <time>2017-10-29T04:38:37Z</time>
            </trkpt>
            <trkpt lon="101.351116" lat="14.181545">
                <ele>14.560000</ele>
                <time>2017-10-29T04:38:40Z</time>
            </trkpt>
            <trkpt lon="101.351266" lat="14.181278">
                <ele>15.520000</ele>
                <time>2017-10-29T04:38:47Z</time>
            </trkpt>
            <trkpt lon="101.351293" lat="14.181243">
                <ele>15.520000</ele>
                <time>2017-10-29T04:38:48Z</time>
            </trkpt>
            <trkpt lon="101.351356" lat="14.181178">
                <ele>16.000000</ele>
                <time>2017-10-29T04:38:50Z</time>
            </trkpt>
            <trkpt lon="101.351740" lat="14.180769">
                <ele>17.920000</ele>
                <time>2017-10-29T04:39:04Z</time>
            </trkpt>
            <trkpt lon="101.351759" lat="14.180744">
                <ele>17.920000</ele>
                <time>2017-10-29T04:39:05Z</time>
            </trkpt>
            <trkpt lon="101.351790" lat="14.180726">
                <ele>18.400000</ele>
                <time>2017-10-29T04:39:06Z</time>
            </trkpt>
            <trkpt lon="101.352109" lat="14.180705">
                <ele>17.920000</ele>
                <time>2017-10-29T04:39:19Z</time>
            </trkpt>
            <trkpt lon="101.352430" lat="14.180903">
                <ele>14.080000</ele>
                <time>2017-10-29T04:39:32Z</time>
            </trkpt>
            <trkpt lon="101.352945" lat="14.181226">
                <ele>12.630000</ele>
                <time>2017-10-29T04:39:47Z</time>
            </trkpt>
            <trkpt lon="101.353168" lat="14.181451">
                <ele>13.600000</ele>
                <time>2017-10-29T04:39:54Z</time>
            </trkpt>
            <trkpt lon="101.353540" lat="14.181877">
                <ele>15.520000</ele>
                <time>2017-10-29T04:40:06Z</time>
            </trkpt>
            <trkpt lon="101.353973" lat="14.182669">
                <ele>16.000000</ele>
                <time>2017-10-29T04:40:26Z</time>
            </trkpt>
            <trkpt lon="101.354380" lat="14.183268">
                <ele>16.960000</ele>
                <time>2017-10-29T04:40:43Z</time>
            </trkpt>
            <trkpt lon="101.354882" lat="14.183922">
                <ele>16.000000</ele>
                <time>2017-10-29T04:41:01Z</time>
            </trkpt>
            <trkpt lon="101.355278" lat="14.184750">
                <ele>16.480000</ele>
                <time>2017-10-29T04:41:20Z</time>
            </trkpt>
            <trkpt lon="101.355588" lat="14.185415">
                <ele>16.960000</ele>
                <time>2017-10-29T04:41:37Z</time>
            </trkpt>
            <trkpt lon="101.355616" lat="14.185450">
                <ele>16.960000</ele>
                <time>2017-10-29T04:41:38Z</time>
            </trkpt>
            <trkpt lon="101.355654" lat="14.185476">
                <ele>16.960000</ele>
                <time>2017-10-29T04:41:39Z</time>
            </trkpt>
            <trkpt lon="101.355698" lat="14.185493">
                <ele>16.960000</ele>
                <time>2017-10-29T04:41:40Z</time>
            </trkpt>
            <trkpt lon="101.355887" lat="14.185381">
                <ele>16.480000</ele>
                <time>2017-10-29T04:41:46Z</time>
            </trkpt>
            <trkpt lon="101.355985" lat="14.185251">
                <ele>16.000000</ele>
                <time>2017-10-29T04:41:50Z</time>
            </trkpt>
            <trkpt lon="101.356159" lat="14.185098">
                <ele>16.000000</ele>
                <time>2017-10-29T04:41:55Z</time>
            </trkpt>
            <trkpt lon="101.356290" lat="14.184886">
                <ele>16.000000</ele>
                <time>2017-10-29T04:42:01Z</time>
            </trkpt>
            <trkpt lon="101.356431" lat="14.184338">
                <ele>16.000000</ele>
                <time>2017-10-29T04:42:13Z</time>
            </trkpt>
            <trkpt lon="101.356384" lat="14.184001">
                <ele>15.520000</ele>
                <time>2017-10-29T04:42:20Z</time>
            </trkpt>
            <trkpt lon="101.356283" lat="14.183833">
                <ele>15.520000</ele>
                <time>2017-10-29T04:42:24Z</time>
            </trkpt>
            <trkpt lon="101.356213" lat="14.183754">
                <ele>15.520000</ele>
                <time>2017-10-29T04:42:26Z</time>
            </trkpt>
            <trkpt lon="101.356207" lat="14.183388">
                <ele>15.040000</ele>
                <time>2017-10-29T04:42:34Z</time>
            </trkpt>
            <trkpt lon="101.356367" lat="14.183126">
                <ele>15.520000</ele>
                <time>2017-10-29T04:42:40Z</time>
            </trkpt>
            <trkpt lon="101.356694" lat="14.182861">
                <ele>15.520000</ele>
                <time>2017-10-29T04:42:49Z</time>
            </trkpt>
            <trkpt lon="101.356663" lat="14.182733">
                <ele>15.520000</ele>
                <time>2017-10-29T04:42:52Z</time>
            </trkpt>
            <trkpt lon="101.356563" lat="14.182572">
                <ele>15.040000</ele>
                <time>2017-10-29T04:42:56Z</time>
            </trkpt>
            <trkpt lon="101.356533" lat="14.182478">
                <ele>14.560000</ele>
                <time>2017-10-29T04:42:58Z</time>
            </trkpt>
            <trkpt lon="101.356490" lat="14.182175">
                <ele>14.080000</ele>
                <time>2017-10-29T04:43:04Z</time>
            </trkpt>
            <trkpt lon="101.356642" lat="14.182038">
                <ele>14.080000</ele>
                <time>2017-10-29T04:43:09Z</time>
            </trkpt>
            <trkpt lon="101.356784" lat="14.182001">
                <ele>14.080000</ele>
                <time>2017-10-29T04:43:12Z</time>
            </trkpt>
            <trkpt lon="101.356872" lat="14.181964">
                <ele>14.080000</ele>
                <time>2017-10-29T04:43:14Z</time>
            </trkpt>
            <trkpt lon="101.357088" lat="14.181736">
                <ele>13.600000</ele>
                <time>2017-10-29T04:43:22Z</time>
            </trkpt>
            <trkpt lon="101.357129" lat="14.181732">
                <ele>13.600000</ele>
                <time>2017-10-29T04:43:23Z</time>
            </trkpt>
            <trkpt lon="101.357343" lat="14.181786">
                <ele>14.080000</ele>
                <time>2017-10-29T04:43:28Z</time>
            </trkpt>
            <trkpt lon="101.358017" lat="14.182424">
                <ele>13.600000</ele>
                <time>2017-10-29T04:43:46Z</time>
            </trkpt>
            <trkpt lon="101.358458" lat="14.182958">
                <ele>14.080000</ele>
                <time>2017-10-29T04:44:00Z</time>
            </trkpt>
            <trkpt lon="101.358746" lat="14.183018">
                <ele>14.560000</ele>
                <time>2017-10-29T04:44:06Z</time>
            </trkpt>
            <trkpt lon="101.359532" lat="14.182862">
                <ele>15.520000</ele>
                <time>2017-10-29T04:44:22Z</time>
            </trkpt>
            <trkpt lon="101.359696" lat="14.182871">
                <ele>15.520000</ele>
                <time>2017-10-29T04:44:26Z</time>
            </trkpt>
            <trkpt lon="101.359797" lat="14.183043">
                <ele>14.560000</ele>
                <time>2017-10-29T04:44:31Z</time>
            </trkpt>
            <trkpt lon="101.360006" lat="14.183744">
                <ele>17.440000</ele>
                <time>2017-10-29T04:44:47Z</time>
            </trkpt>
            <trkpt lon="101.360080" lat="14.183950">
                <ele>17.920000</ele>
                <time>2017-10-29T04:44:52Z</time>
            </trkpt>
            <trkpt lon="101.360290" lat="14.184158">
                <ele>15.520000</ele>
                <time>2017-10-29T04:44:58Z</time>
            </trkpt>
            <trkpt lon="101.360579" lat="14.184266">
                <ele>14.080000</ele>
                <time>2017-10-29T04:45:05Z</time>
            </trkpt>
            <trkpt lon="101.360824" lat="14.184485">
                <ele>10.710000</ele>
                <time>2017-10-29T04:45:14Z</time>
            </trkpt>
            <trkpt lon="101.361184" lat="14.184550">
                <ele>8.790000</ele>
                <time>2017-10-29T04:45:23Z</time>
            </trkpt>
            <trkpt lon="101.361495" lat="14.184585">
                <ele>8.310000</ele>
                <time>2017-10-29T04:45:30Z</time>
            </trkpt>
            <trkpt lon="101.361897" lat="14.184521">
                <ele>9.750000</ele>
                <time>2017-10-29T04:45:39Z</time>
            </trkpt>
            <trkpt lon="101.362555" lat="14.184405">
                <ele>14.080000</ele>
                <time>2017-10-29T04:45:53Z</time>
            </trkpt>
            <trkpt lon="101.362824" lat="14.184365">
                <ele>14.080000</ele>
                <time>2017-10-29T04:45:59Z</time>
            </trkpt>
            <trkpt lon="101.363279" lat="14.184090">
                <ele>15.520000</ele>
                <time>2017-10-29T04:46:12Z</time>
            </trkpt>
            <trkpt lon="101.363771" lat="14.183806">
                <ele>16.480000</ele>
                <time>2017-10-29T04:46:27Z</time>
            </trkpt>
            <trkpt lon="101.363934" lat="14.183711">
                <ele>17.920000</ele>
                <time>2017-10-29T04:46:33Z</time>
            </trkpt>
            <trkpt lon="101.364022" lat="14.183777">
                <ele>17.920000</ele>
                <time>2017-10-29T04:46:37Z</time>
            </trkpt>
            <trkpt lon="101.364131" lat="14.183950">
                <ele>17.440000</ele>
                <time>2017-10-29T04:46:42Z</time>
            </trkpt>
            <trkpt lon="101.364294" lat="14.184640">
                <ele>16.000000</ele>
                <time>2017-10-29T04:46:58Z</time>
            </trkpt>
            <trkpt lon="101.364385" lat="14.185354">
                <ele>15.520000</ele>
                <time>2017-10-29T04:47:15Z</time>
            </trkpt>
            <trkpt lon="101.364392" lat="14.185421">
                <ele>15.520000</ele>
                <time>2017-10-29T04:47:17Z</time>
            </trkpt>
            <trkpt lon="101.364522" lat="14.185441">
                <ele>15.520000</ele>
                <time>2017-10-29T04:47:22Z</time>
            </trkpt>
            <trkpt lon="101.364717" lat="14.185412">
                <ele>15.520000</ele>
                <time>2017-10-29T04:47:28Z</time>
            </trkpt>
            <trkpt lon="101.364701" lat="14.185665">
                <ele>15.520000</ele>
                <time>2017-10-29T04:47:38Z</time>
            </trkpt>
            <trkpt lon="101.364738" lat="14.185713">
                <ele>16.000000</ele>
                <time>2017-10-29T04:47:42Z</time>
            </trkpt>
            <trkpt lon="101.364833" lat="14.185725">
                <ele>16.480000</ele>
                <time>2017-10-29T04:47:55Z</time>
            </trkpt>
            <trkpt lon="101.364843" lat="14.185735">
                <ele>16.960000</ele>
                <time>2017-10-29T04:48:07Z</time>
            </trkpt>
            <trkpt lon="101.364859" lat="14.185733">
                <ele>16.960000</ele>
                <time>2017-10-29T04:48:19Z</time>
            </trkpt>
            <trkpt lon="101.364853" lat="14.185728">
                <ele>16.960000</ele>
                <time>2017-10-29T04:48:29Z</time>
            </trkpt>
            <trkpt lon="101.364786" lat="14.185723">
                <ele>17.440000</ele>
                <time>2017-10-29T04:48:38Z</time>
            </trkpt>
            <trkpt lon="101.364759" lat="14.185723">
                <ele>17.440000</ele>
                <time>2017-10-29T04:48:41Z</time>
            </trkpt>
            <trkpt lon="101.364702" lat="14.185640">
                <ele>17.440000</ele>
                <time>2017-10-29T04:48:57Z</time>
            </trkpt>
            <trkpt lon="101.364698" lat="14.185637">
                <ele>17.440000</ele>
                <time>2017-10-29T04:49:04Z</time>
            </trkpt>
            <trkpt lon="101.364750" lat="14.185528">
                <ele>16.960000</ele>
                <time>2017-10-29T04:49:14Z</time>
            </trkpt>
            <trkpt lon="101.364809" lat="14.185520">
                <ele>16.000000</ele>
                <time>2017-10-29T04:49:25Z</time>
            </trkpt>
            <trkpt lon="101.364855" lat="14.185498">
                <ele>16.480000</ele>
                <time>2017-10-29T04:49:31Z</time>
            </trkpt>
            <trkpt lon="101.364925" lat="14.185479">
                <ele>17.440000</ele>
                <time>2017-10-29T04:49:36Z</time>
            </trkpt>
            <trkpt lon="101.365017" lat="14.185448">
                <ele>17.440000</ele>
                <time>2017-10-29T04:49:41Z</time>
            </trkpt>
            <trkpt lon="101.365089" lat="14.185455">
                <ele>16.000000</ele>
                <time>2017-10-29T04:49:51Z</time>
            </trkpt>
            <trkpt lon="101.365126" lat="14.185452">
                <ele>15.520000</ele>
                <time>2017-10-29T04:50:04Z</time>
            </trkpt>
            <trkpt lon="101.365262" lat="14.185456">
                <ele>15.520000</ele>
                <time>2017-10-29T04:50:19Z</time>
            </trkpt>
            <trkpt lon="101.365400" lat="14.185465">
                <ele>15.040000</ele>
                <time>2017-10-29T04:50:34Z</time>
            </trkpt>
            <trkpt lon="101.365491" lat="14.185469">
                <ele>14.560000</ele>
                <time>2017-10-29T04:50:51Z</time>
            </trkpt>
            <trkpt lon="101.365625" lat="14.185480">
                <ele>14.080000</ele>
                <time>2017-10-29T04:51:03Z</time>
            </trkpt>
            <trkpt lon="101.365727" lat="14.185472">
                <ele>13.600000</ele>
                <time>2017-10-29T04:51:12Z</time>
            </trkpt>
            <trkpt lon="101.365783" lat="14.185423">
                <ele>15.040000</ele>
                <time>2017-10-29T04:51:19Z</time>
            </trkpt>
            <trkpt lon="101.366135" lat="14.185407">
                <ele>15.520000</ele>
                <time>2017-10-29T04:51:33Z</time>
            </trkpt>
            <trkpt lon="101.366507" lat="14.185458">
                <ele>15.520000</ele>
                <time>2017-10-29T04:51:48Z</time>
            </trkpt>
            <trkpt lon="101.366538" lat="14.185466">
                <ele>15.520000</ele>
                <time>2017-10-29T04:51:50Z</time>
            </trkpt>
            <trkpt lon="101.366563" lat="14.185360">
                <ele>17.440000</ele>
                <time>2017-10-29T04:51:57Z</time>
            </trkpt>
            <trkpt lon="101.366578" lat="14.185205">
                <ele>18.400000</ele>
                <time>2017-10-29T04:52:10Z</time>
            </trkpt>
            <trkpt lon="101.366595" lat="14.185164">
                <ele>18.400000</ele>
                <time>2017-10-29T04:52:22Z</time>
            </trkpt>
            <trkpt lon="101.366601" lat="14.185030">
                <ele>18.400000</ele>
                <time>2017-10-29T04:52:35Z</time>
            </trkpt>
            <trkpt lon="101.366627" lat="14.184666">
                <ele>18.400000</ele>
                <time>2017-10-29T04:52:50Z</time>
            </trkpt>
            <trkpt lon="101.366664" lat="14.184252">
                <ele>17.440000</ele>
                <time>2017-10-29T04:53:05Z</time>
            </trkpt>
            <trkpt lon="101.366682" lat="14.183922">
                <ele>16.960000</ele>
                <time>2017-10-29T04:53:17Z</time>
            </trkpt>
            <trkpt lon="101.366720" lat="14.183821">
                <ele>17.440000</ele>
                <time>2017-10-29T04:53:22Z</time>
            </trkpt>
            <trkpt lon="101.366899" lat="14.183732">
                <ele>16.960000</ele>
                <time>2017-10-29T04:53:36Z</time>
            </trkpt>
            <trkpt lon="101.367115" lat="14.183634">
                <ele>16.960000</ele>
                <time>2017-10-29T04:53:51Z</time>
            </trkpt>
            <trkpt lon="101.367231" lat="14.183574">
                <ele>16.960000</ele>
                <time>2017-10-29T04:54:04Z</time>
            </trkpt>
            <trkpt lon="101.367358" lat="14.183463">
                <ele>18.400000</ele>
                <time>2017-10-29T04:54:18Z</time>
            </trkpt>
            <trkpt lon="101.367525" lat="14.183350">
                <ele>20.320000</ele>
                <time>2017-10-29T04:54:35Z</time>
            </trkpt>
            <trkpt lon="101.367629" lat="14.183203">
                <ele>20.320000</ele>
                <time>2017-10-29T04:54:49Z</time>
            </trkpt>
            <trkpt lon="101.367660" lat="14.183123">
                <ele>20.810000</ele>
                <time>2017-10-29T04:54:59Z</time>
            </trkpt>
            <trkpt lon="101.367750" lat="14.182957">
                <ele>20.810000</ele>
                <time>2017-10-29T04:55:14Z</time>
            </trkpt>
            <trkpt lon="101.367763" lat="14.182920">
                <ele>20.810000</ele>
                <time>2017-10-29T04:55:18Z</time>
            </trkpt>
            <trkpt lon="101.367776" lat="14.182850">
                <ele>20.810000</ele>
                <time>2017-10-29T04:55:23Z</time>
            </trkpt>
            <trkpt lon="101.367800" lat="14.182816">
                <ele>20.320000</ele>
                <time>2017-10-29T04:55:26Z</time>
            </trkpt>
            <trkpt lon="101.367811" lat="14.182711">
                <ele>19.840000</ele>
                <time>2017-10-29T04:55:39Z</time>
            </trkpt>
            <trkpt lon="101.367848" lat="14.182528">
                <ele>19.360000</ele>
                <time>2017-10-29T04:55:53Z</time>
            </trkpt>
            <trkpt lon="101.367858" lat="14.182463">
                <ele>19.360000</ele>
                <time>2017-10-29T04:55:57Z</time>
            </trkpt>
            <trkpt lon="101.367841" lat="14.182400">
                <ele>18.880000</ele>
                <time>2017-10-29T04:56:01Z</time>
            </trkpt>
            <trkpt lon="101.367819" lat="14.182182">
                <ele>19.360000</ele>
                <time>2017-10-29T04:56:15Z</time>
            </trkpt>
            <trkpt lon="101.367851" lat="14.182030">
                <ele>19.840000</ele>
                <time>2017-10-29T04:56:26Z</time>
            </trkpt>
            <trkpt lon="101.367906" lat="14.181981">
                <ele>19.840000</ele>
                <time>2017-10-29T04:56:37Z</time>
            </trkpt>
            <trkpt lon="101.367971" lat="14.181893">
                <ele>20.810000</ele>
                <time>2017-10-29T04:56:50Z</time>
            </trkpt>
            <trkpt lon="101.368008" lat="14.181860">
                <ele>20.810000</ele>
                <time>2017-10-29T04:56:56Z</time>
            </trkpt>
            <trkpt lon="101.368061" lat="14.181795">
                <ele>21.290000</ele>
                <time>2017-10-29T04:57:03Z</time>
            </trkpt>
            <trkpt lon="101.368086" lat="14.181761">
                <ele>20.810000</ele>
                <time>2017-10-29T04:57:07Z</time>
            </trkpt>
            <trkpt lon="101.368152" lat="14.181562">
                <ele>20.320000</ele>
                <time>2017-10-29T04:57:25Z</time>
            </trkpt>
            <trkpt lon="101.368175" lat="14.181408">
                <ele>20.810000</ele>
                <time>2017-10-29T04:57:39Z</time>
            </trkpt>
            <trkpt lon="101.368157" lat="14.181212">
                <ele>21.290000</ele>
                <time>2017-10-29T04:57:55Z</time>
            </trkpt>
            <trkpt lon="101.368159" lat="14.181187">
                <ele>21.290000</ele>
                <time>2017-10-29T04:57:57Z</time>
            </trkpt>
            <trkpt lon="101.368207" lat="14.181127">
                <ele>21.290000</ele>
                <time>2017-10-29T04:58:04Z</time>
            </trkpt>
            <trkpt lon="101.368275" lat="14.181107">
                <ele>21.290000</ele>
                <time>2017-10-29T04:58:11Z</time>
            </trkpt>
            <trkpt lon="101.368263" lat="14.181006">
                <ele>21.290000</ele>
                <time>2017-10-29T04:58:22Z</time>
            </trkpt>
            <trkpt lon="101.368268" lat="14.180938">
                <ele>22.250000</ele>
                <time>2017-10-29T04:58:35Z</time>
            </trkpt>
            <trkpt lon="101.368290" lat="14.180931">
                <ele>21.770000</ele>
                <time>2017-10-29T04:58:50Z</time>
            </trkpt>
            <trkpt lon="101.368366" lat="14.180911">
                <ele>21.770000</ele>
                <time>2017-10-29T04:58:55Z</time>
            </trkpt>
            <trkpt lon="101.368681" lat="14.180756">
                <ele>21.770000</ele>
                <time>2017-10-29T04:59:11Z</time>
            </trkpt>
            <trkpt lon="101.368996" lat="14.180510">
                <ele>20.810000</ele>
                <time>2017-10-29T04:59:25Z</time>
            </trkpt>
            <trkpt lon="101.369115" lat="14.180475">
                <ele>19.360000</ele>
                <time>2017-10-29T04:59:29Z</time>
            </trkpt>
            <trkpt lon="101.369145" lat="14.180486">
                <ele>18.880000</ele>
                <time>2017-10-29T04:59:30Z</time>
            </trkpt>
            <trkpt lon="101.369172" lat="14.180507">
                <ele>18.400000</ele>
                <time>2017-10-29T04:59:31Z</time>
            </trkpt>
            <trkpt lon="101.369192" lat="14.180530">
                <ele>18.400000</ele>
                <time>2017-10-29T04:59:32Z</time>
            </trkpt>
            <trkpt lon="101.369211" lat="14.180553">
                <ele>18.400000</ele>
                <time>2017-10-29T04:59:33Z</time>
            </trkpt>
            <trkpt lon="101.369231" lat="14.180574">
                <ele>18.880000</ele>
                <time>2017-10-29T04:59:34Z</time>
            </trkpt>
            <trkpt lon="101.369597" lat="14.180949">
                <ele>18.880000</ele>
                <time>2017-10-29T04:59:50Z</time>
            </trkpt>
            <trkpt lon="101.369996" lat="14.181345">
                <ele>18.400000</ele>
                <time>2017-10-29T05:00:04Z</time>
            </trkpt>
            <trkpt lon="101.370655" lat="14.182005">
                <ele>20.320000</ele>
                <time>2017-10-29T05:00:24Z</time>
            </trkpt>
            <trkpt lon="101.370780" lat="14.182144">
                <ele>20.320000</ele>
                <time>2017-10-29T05:00:28Z</time>
            </trkpt>
            <trkpt lon="101.371429" lat="14.182788">
                <ele>20.320000</ele>
                <time>2017-10-29T05:00:47Z</time>
            </trkpt>
            <trkpt lon="101.372343" lat="14.183691">
                <ele>40.599976</ele>
                <time>2017-10-29T05:07:03Z</time>
                <extensions>
                    <gpxx:TrackPointExtension xmlns:gpxx="http://www.garmin.com/xmlschemas/GpxExtensions/v3">
                        <gpxx:Temperature>36</gpxx:Temperature>
                    </gpxx:TrackPointExtension>
                </extensions>
            </trkpt>
            <trkpt lon="101.372361" lat="14.183768">
                <ele>40.599976</ele>
                <time>2017-10-29T05:07:05Z</time>
                <extensions>
                    <gpxx:TrackPointExtension xmlns:gpxx="http://www.garmin.com/xmlschemas/GpxExtensions/v3">
                        <gpxx:Temperature>36</gpxx:Temperature>
                    </gpxx:TrackPointExtension>
                </extensions>
            </trkpt>
            <trkpt lon="101.372266" lat="14.183856">
                <ele>40.599976</ele>
                <time>2017-10-29T05:07:08Z</time>
                <extensions>
                    <gpxx:TrackPointExtension xmlns:gpxx="http://www.garmin.com/xmlschemas/GpxExtensions/v3">
                        <gpxx:Temperature>36</gpxx:Temperature>
                    </gpxx:TrackPointExtension>
                </extensions>
            </trkpt>
            <trkpt lon="101.372190" lat="14.183921">
                <ele>40.599976</ele>
                <time>2017-10-29T05:07:10Z</time>
                <extensions>
                    <gpxx:TrackPointExtension xmlns:gpxx="http://www.garmin.com/xmlschemas/GpxExtensions/v3">
                        <gpxx:Temperature>36</gpxx:Temperature>
                    </gpxx:TrackPointExtension>
                </extensions>
            </trkpt>
            <trkpt lon="101.372166" lat="14.184018">
                <ele>40.599976</ele>
                <time>2017-10-29T05:07:12Z</time>
                <extensions>
                    <gpxx:TrackPointExtension xmlns:gpxx="http://www.garmin.com/xmlschemas/GpxExtensions/v3">
                        <gpxx:Temperature>36</gpxx:Temperature>
                    </gpxx:TrackPointExtension>
                </extensions>
            </trkpt>
            <trkpt lon="101.372193" lat="14.184120">
                <ele>40.599976</ele>
                <time>2017-10-29T05:07:14Z</time>
                <extensions>
                    <gpxx:TrackPointExtension xmlns:gpxx="http://www.garmin.com/xmlschemas/GpxExtensions/v3">
                        <gpxx:Temperature>36</gpxx:Temperature>
                    </gpxx:TrackPointExtension>
                </extensions>
            </trkpt>
            <trkpt lon="101.372245" lat="14.184281">
                <ele>40.599976</ele>
                <time>2017-10-29T05:07:17Z</time>
                <extensions>
                    <gpxx:TrackPointExtension xmlns:gpxx="http://www.garmin.com/xmlschemas/GpxExtensions/v3">
                        <gpxx:Temperature>36</gpxx:Temperature>
                    </gpxx:TrackPointExtension>
                </extensions>
            </trkpt>
            <trkpt lon="101.372295" lat="14.184490">
                <ele>40.599976</ele>
                <time>2017-10-29T05:07:21Z</time>
                <extensions>
                    <gpxx:TrackPointExtension xmlns:gpxx="http://www.garmin.com/xmlschemas/GpxExtensions/v3">
                        <gpxx:Temperature>36</gpxx:Temperature>
                    </gpxx:TrackPointExtension>
                </extensions>
            </trkpt>
            <trkpt lon="101.372329" lat="14.184585">
                <ele>40.599976</ele>
                <time>2017-10-29T05:07:23Z</time>
                <extensions>
                    <gpxx:TrackPointExtension xmlns:gpxx="http://www.garmin.com/xmlschemas/GpxExtensions/v3">
                        <gpxx:Temperature>36</gpxx:Temperature>
                    </gpxx:TrackPointExtension>
                </extensions>
            </trkpt>
            <trkpt lon="101.372415" lat="14.184881">
                <ele>40.200012</ele>
                <time>2017-10-29T05:07:29Z</time>
                <extensions>
                    <gpxx:TrackPointExtension xmlns:gpxx="http://www.garmin.com/xmlschemas/GpxExtensions/v3">
                        <gpxx:Temperature>36</gpxx:Temperature>
                    </gpxx:TrackPointExtension>
                </extensions>
            </trkpt>
            <trkpt lon="101.372434" lat="14.184929">
                <ele>40.200012</ele>
                <time>2017-10-29T05:07:30Z</time>
                <extensions>
                    <gpxx:TrackPointExtension xmlns:gpxx="http://www.garmin.com/xmlschemas/GpxExtensions/v3">
                        <gpxx:Temperature>36</gpxx:Temperature>
                    </gpxx:TrackPointExtension>
                </extensions>
            </trkpt>
            <trkpt lon="101.372451" lat="14.184980">
                <ele>40.200012</ele>
                <time>2017-10-29T05:07:31Z</time>
                <extensions>
                    <gpxx:TrackPointExtension xmlns:gpxx="http://www.garmin.com/xmlschemas/GpxExtensions/v3">
                        <gpxx:Temperature>36</gpxx:Temperature>
                    </gpxx:TrackPointExtension>
                </extensions>
            </trkpt>
            <trkpt lon="101.372504" lat="14.185189">
                <ele>40.200012</ele>
                <time>2017-10-29T05:07:35Z</time>
                <extensions>
                    <gpxx:TrackPointExtension xmlns:gpxx="http://www.garmin.com/xmlschemas/GpxExtensions/v3">
                        <gpxx:Temperature>36</gpxx:Temperature>
                    </gpxx:TrackPointExtension>
                </extensions>
            </trkpt>
            <trkpt lon="101.372622" lat="14.185613">
                <ele>40.200012</ele>
                <time>2017-10-29T05:07:43Z</time>
                <extensions>
                    <gpxx:TrackPointExtension xmlns:gpxx="http://www.garmin.com/xmlschemas/GpxExtensions/v3">
                        <gpxx:Temperature>36</gpxx:Temperature>
                    </gpxx:TrackPointExtension>
                </extensions>
            </trkpt>
            <trkpt lon="101.372557" lat="14.185717">
                <ele>40.200012</ele>
                <time>2017-10-29T05:07:46Z</time>
                <extensions>
                    <gpxx:TrackPointExtension xmlns:gpxx="http://www.garmin.com/xmlschemas/GpxExtensions/v3">
                        <gpxx:Temperature>36</gpxx:Temperature>
                    </gpxx:TrackPointExtension>
                </extensions>
            </trkpt>
            <trkpt lon="101.372457" lat="14.185733">
                <ele>40.000000</ele>
                <time>2017-10-29T05:07:48Z</time>
                <extensions>
                    <gpxx:TrackPointExtension xmlns:gpxx="http://www.garmin.com/xmlschemas/GpxExtensions/v3">
                        <gpxx:Temperature>36</gpxx:Temperature>
                    </gpxx:TrackPointExtension>
                </extensions>
            </trkpt>
            <trkpt lon="101.372403" lat="14.185742">
                <ele>40.000000</ele>
                <time>2017-10-29T05:07:49Z</time>
                <extensions>
                    <gpxx:TrackPointExtension xmlns:gpxx="http://www.garmin.com/xmlschemas/GpxExtensions/v3">
                        <gpxx:Temperature>36</gpxx:Temperature>
                    </gpxx:TrackPointExtension>
                </extensions>
            </trkpt>
            <trkpt lon="101.372349" lat="14.185754">
                <ele>40.000000</ele>
                <time>2017-10-29T05:07:50Z</time>
                <extensions>
                    <gpxx:TrackPointExtension xmlns:gpxx="http://www.garmin.com/xmlschemas/GpxExtensions/v3">
                        <gpxx:Temperature>36</gpxx:Temperature>
                    </gpxx:TrackPointExtension>
                </extensions>
            </trkpt>
            <trkpt lon="101.372183" lat="14.185780">
                <ele>40.400024</ele>
                <time>2017-10-29T05:07:53Z</time>
                <extensions>
                    <gpxx:TrackPointExtension xmlns:gpxx="http://www.garmin.com/xmlschemas/GpxExtensions/v3">
                        <gpxx:Temperature>36</gpxx:Temperature>
                    </gpxx:TrackPointExtension>
                </extensions>
            </trkpt>
            <trkpt lon="101.372073" lat="14.185800">
                <ele>40.200012</ele>
                <time>2017-10-29T05:07:55Z</time>
                <extensions>
                    <gpxx:TrackPointExtension xmlns:gpxx="http://www.garmin.com/xmlschemas/GpxExtensions/v3">
                        <gpxx:Temperature>36</gpxx:Temperature>
                    </gpxx:TrackPointExtension>
                </extensions>
            </trkpt>
            <trkpt lon="101.371658" lat="14.185856">
                <ele>39.200012</ele>
                <time>2017-10-29T05:08:02Z</time>
                <extensions>
                    <gpxx:TrackPointExtension xmlns:gpxx="http://www.garmin.com/xmlschemas/GpxExtensions/v3">
                        <gpxx:Temperature>36</gpxx:Temperature>
                    </gpxx:TrackPointExtension>
                </extensions>
            </trkpt>
            <trkpt lon="101.371369" lat="14.185879">
                <ele>38.799988</ele>
                <time>2017-10-29T05:08:07Z</time>
                <extensions>
                    <gpxx:TrackPointExtension xmlns:gpxx="http://www.garmin.com/xmlschemas/GpxExtensions/v3">
                        <gpxx:Temperature>36</gpxx:Temperature>
                    </gpxx:TrackPointExtension>
                </extensions>
            </trkpt>
            <trkpt lon="101.371346" lat="14.185901">
                <ele>38.799988</ele>
                <time>2017-10-29T05:08:08Z</time>
                <extensions>
                    <gpxx:TrackPointExtension xmlns:gpxx="http://www.garmin.com/xmlschemas/GpxExtensions/v3">
                        <gpxx:Temperature>36</gpxx:Temperature>
                    </gpxx:TrackPointExtension>
                </extensions>
            </trkpt>
            <trkpt lon="101.371345" lat="14.185927">
                <ele>38.799988</ele>
                <time>2017-10-29T05:08:09Z</time>
                <extensions>
                    <gpxx:TrackPointExtension xmlns:gpxx="http://www.garmin.com/xmlschemas/GpxExtensions/v3">
                        <gpxx:Temperature>36</gpxx:Temperature>
                    </gpxx:TrackPointExtension>
                </extensions>
            </trkpt>
            <trkpt lon="101.371374" lat="14.186032">
                <ele>39.000000</ele>
                <time>2017-10-29T05:08:13Z</time>
                <extensions>
                    <gpxx:TrackPointExtension xmlns:gpxx="http://www.garmin.com/xmlschemas/GpxExtensions/v3">
                        <gpxx:Temperature>36</gpxx:Temperature>
                    </gpxx:TrackPointExtension>
                </extensions>
            </trkpt>
            <trkpt lon="101.371377" lat="14.186066">
                <ele>39.200012</ele>
                <time>2017-10-29T05:08:14Z</time>
                <extensions>
                    <gpxx:TrackPointExtension xmlns:gpxx="http://www.garmin.com/xmlschemas/GpxExtensions/v3">
                        <gpxx:Temperature>36</gpxx:Temperature>
                    </gpxx:TrackPointExtension>
                </extensions>
            </trkpt>
            <trkpt lon="101.371404" lat="14.186378">
                <ele>38.400024</ele>
                <time>2017-10-29T05:08:22Z</time>
                <extensions>
                    <gpxx:TrackPointExtension xmlns:gpxx="http://www.garmin.com/xmlschemas/GpxExtensions/v3">
                        <gpxx:Temperature>36</gpxx:Temperature>
                    </gpxx:TrackPointExtension>
                </extensions>
            </trkpt>
            <trkpt lon="101.371428" lat="14.186660">
                <ele>38.599976</ele>
                <time>2017-10-29T05:08:29Z</time>
                <extensions>
                    <gpxx:TrackPointExtension xmlns:gpxx="http://www.garmin.com/xmlschemas/GpxExtensions/v3">
                        <gpxx:Temperature>36</gpxx:Temperature>
                    </gpxx:TrackPointExtension>
                </extensions>
            </trkpt>
            <trkpt lon="101.371433" lat="14.186787">
                <ele>38.599976</ele>
                <time>2017-10-29T05:08:32Z</time>
                <extensions>
                    <gpxx:TrackPointExtension xmlns:gpxx="http://www.garmin.com/xmlschemas/GpxExtensions/v3">
                        <gpxx:Temperature>36</gpxx:Temperature>
                    </gpxx:TrackPointExtension>
                </extensions>
            </trkpt>
            <trkpt lon="101.371446" lat="14.186871">
                <ele>39.000000</ele>
                <time>2017-10-29T05:08:34Z</time>
                <extensions>
                    <gpxx:TrackPointExtension xmlns:gpxx="http://www.garmin.com/xmlschemas/GpxExtensions/v3">
                        <gpxx:Temperature>36</gpxx:Temperature>
                    </gpxx:TrackPointExtension>
                </extensions>
            </trkpt>
            <trkpt lon="101.371464" lat="14.187105">
                <ele>38.799988</ele>
                <time>2017-10-29T05:08:40Z</time>
                <extensions>
                    <gpxx:TrackPointExtension xmlns:gpxx="http://www.garmin.com/xmlschemas/GpxExtensions/v3">
                        <gpxx:Temperature>35</gpxx:Temperature>
                    </gpxx:TrackPointExtension>
                </extensions>
            </trkpt>
            <trkpt lon="101.371498" lat="14.187286">
                <ele>38.599976</ele>
                <time>2017-10-29T05:08:45Z</time>
                <extensions>
                    <gpxx:TrackPointExtension xmlns:gpxx="http://www.garmin.com/xmlschemas/GpxExtensions/v3">
                        <gpxx:Temperature>35</gpxx:Temperature>
                    </gpxx:TrackPointExtension>
                </extensions>
            </trkpt>
            <trkpt lon="101.371506" lat="14.187465">
                <ele>38.400024</ele>
                <time>2017-10-29T05:08:50Z</time>
                <extensions>
                    <gpxx:TrackPointExtension xmlns:gpxx="http://www.garmin.com/xmlschemas/GpxExtensions/v3">
                        <gpxx:Temperature>35</gpxx:Temperature>
                    </gpxx:TrackPointExtension>
                </extensions>
            </trkpt>
            <trkpt lon="101.371509" lat="14.187499">
                <ele>38.000000</ele>
                <time>2017-10-29T05:08:53Z</time>
                <extensions>
                    <gpxx:TrackPointExtension xmlns:gpxx="http://www.garmin.com/xmlschemas/GpxExtensions/v3">
                        <gpxx:Temperature>35</gpxx:Temperature>
                    </gpxx:TrackPointExtension>
                </extensions>
            </trkpt>
            <trkpt lon="101.371508" lat="14.187512">
                <ele>37.799988</ele>
                <time>2017-10-29T05:09:00Z</time>
                <extensions>
                    <gpxx:TrackPointExtension xmlns:gpxx="http://www.garmin.com/xmlschemas/GpxExtensions/v3">
                        <gpxx:Temperature>35</gpxx:Temperature>
                    </gpxx:TrackPointExtension>
                </extensions>
            </trkpt>
            <trkpt lon="101.371499" lat="14.187540">
                <ele>37.799988</ele>
                <time>2017-10-29T05:09:05Z</time>
                <extensions>
                    <gpxx:TrackPointExtension xmlns:gpxx="http://www.garmin.com/xmlschemas/GpxExtensions/v3">
                        <gpxx:Temperature>35</gpxx:Temperature>
                    </gpxx:TrackPointExtension>
                </extensions>
            </trkpt>
            <trkpt lon="101.371490" lat="14.187548">
                <ele>37.799988</ele>
                <time>2017-10-29T05:09:11Z</time>
                <extensions>
                    <gpxx:TrackPointExtension xmlns:gpxx="http://www.garmin.com/xmlschemas/GpxExtensions/v3">
                        <gpxx:Temperature>35</gpxx:Temperature>
                    </gpxx:TrackPointExtension>
                </extensions>
            </trkpt>
            <trkpt lon="101.371491" lat="14.187547">
                <ele>37.599976</ele>
                <time>2017-10-29T05:09:26Z</time>
                <extensions>
                    <gpxx:TrackPointExtension xmlns:gpxx="http://www.garmin.com/xmlschemas/GpxExtensions/v3">
                        <gpxx:Temperature>35</gpxx:Temperature>
                    </gpxx:TrackPointExtension>
                </extensions>
            </trkpt>
            <trkpt lon="101.371467" lat="14.187556">
                <ele>37.799988</ele>
                <time>2017-10-29T05:09:34Z</time>
                <extensions>
                    <gpxx:TrackPointExtension xmlns:gpxx="http://www.garmin.com/xmlschemas/GpxExtensions/v3">
                        <gpxx:Temperature>35</gpxx:Temperature>
                    </gpxx:TrackPointExtension>
                </extensions>
            </trkpt>
            <trkpt lon="101.371455" lat="14.187576">
                <ele>38.000000</ele>
                <time>2017-10-29T05:09:36Z</time>
                <extensions>
                    <gpxx:TrackPointExtension xmlns:gpxx="http://www.garmin.com/xmlschemas/GpxExtensions/v3">
                        <gpxx:Temperature>35</gpxx:Temperature>
                    </gpxx:TrackPointExtension>
                </extensions>
            </trkpt>
            <trkpt lon="101.371470" lat="14.187604">
                <ele>38.200012</ele>
                <time>2017-10-29T05:09:38Z</time>
                <extensions>
                    <gpxx:TrackPointExtension xmlns:gpxx="http://www.garmin.com/xmlschemas/GpxExtensions/v3">
                        <gpxx:Temperature>35</gpxx:Temperature>
                    </gpxx:TrackPointExtension>
                </extensions>
            </trkpt>
            <trkpt lon="101.371505" lat="14.187660">
                <ele>38.200012</ele>
                <time>2017-10-29T05:09:42Z</time>
                <extensions>
                    <gpxx:TrackPointExtension xmlns:gpxx="http://www.garmin.com/xmlschemas/GpxExtensions/v3">
                        <gpxx:Temperature>35</gpxx:Temperature>
                    </gpxx:TrackPointExtension>
                </extensions>
            </trkpt>
            <trkpt lon="101.371515" lat="14.187690">
                <ele>38.400024</ele>
                <time>2017-10-29T05:09:44Z</time>
                <extensions>
                    <gpxx:TrackPointExtension xmlns:gpxx="http://www.garmin.com/xmlschemas/GpxExtensions/v3">
                        <gpxx:Temperature>35</gpxx:Temperature>
                    </gpxx:TrackPointExtension>
                </extensions>
            </trkpt>
            <trkpt lon="101.371544" lat="14.187815">
                <ele>38.799988</ele>
                <time>2017-10-29T05:09:50Z</time>
                <extensions>
                    <gpxx:TrackPointExtension xmlns:gpxx="http://www.garmin.com/xmlschemas/GpxExtensions/v3">
                        <gpxx:Temperature>35</gpxx:Temperature>
                    </gpxx:TrackPointExtension>
                </extensions>
            </trkpt>
            <trkpt lon="101.371566" lat="14.187967">
                <ele>38.799988</ele>
                <time>2017-10-29T05:09:57Z</time>
                <extensions>
                    <gpxx:TrackPointExtension xmlns:gpxx="http://www.garmin.com/xmlschemas/GpxExtensions/v3">
                        <gpxx:Temperature>35</gpxx:Temperature>
                    </gpxx:TrackPointExtension>
                </extensions>
            </trkpt>
            <trkpt lon="101.371595" lat="14.188109">
                <ele>38.599976</ele>
                <time>2017-10-29T05:10:03Z</time>
                <extensions>
                    <gpxx:TrackPointExtension xmlns:gpxx="http://www.garmin.com/xmlschemas/GpxExtensions/v3">
                        <gpxx:Temperature>35</gpxx:Temperature>
                    </gpxx:TrackPointExtension>
                </extensions>
            </trkpt>
            <trkpt lon="101.371650" lat="14.188244">
                <ele>38.799988</ele>
                <time>2017-10-29T05:10:08Z</time>
                <extensions>
                    <gpxx:TrackPointExtension xmlns:gpxx="http://www.garmin.com/xmlschemas/GpxExtensions/v3">
                        <gpxx:Temperature>35</gpxx:Temperature>
                    </gpxx:TrackPointExtension>
                </extensions>
            </trkpt>
            <trkpt lon="101.371674" lat="14.188255">
                <ele>38.599976</ele>
                <time>2017-10-29T05:10:09Z</time>
                <extensions>
                    <gpxx:TrackPointExtension xmlns:gpxx="http://www.garmin.com/xmlschemas/GpxExtensions/v3">
                        <gpxx:Temperature>35</gpxx:Temperature>
                    </gpxx:TrackPointExtension>
                </extensions>
            </trkpt>
            <trkpt lon="101.371764" lat="14.188256">
                <ele>38.000000</ele>
                <time>2017-10-29T05:10:12Z</time>
                <extensions>
                    <gpxx:TrackPointExtension xmlns:gpxx="http://www.garmin.com/xmlschemas/GpxExtensions/v3">
                        <gpxx:Temperature>35</gpxx:Temperature>
                    </gpxx:TrackPointExtension>
                </extensions>
            </trkpt>
            <trkpt lon="101.371836" lat="14.188252">
                <ele>38.200012</ele>
                <time>2017-10-29T05:10:14Z</time>
                <extensions>
                    <gpxx:TrackPointExtension xmlns:gpxx="http://www.garmin.com/xmlschemas/GpxExtensions/v3">
                        <gpxx:Temperature>35</gpxx:Temperature>
                    </gpxx:TrackPointExtension>
                </extensions>
            </trkpt>
            <trkpt lon="101.372017" lat="14.188215">
                <ele>38.799988</ele>
                <time>2017-10-29T05:10:20Z</time>
                <extensions>
                    <gpxx:TrackPointExtension xmlns:gpxx="http://www.garmin.com/xmlschemas/GpxExtensions/v3">
                        <gpxx:Temperature>35</gpxx:Temperature>
                    </gpxx:TrackPointExtension>
                </extensions>
            </trkpt>
            <trkpt lon="101.372115" lat="14.188187">
                <ele>38.599976</ele>
                <time>2017-10-29T05:10:25Z</time>
                <extensions>
                    <gpxx:TrackPointExtension xmlns:gpxx="http://www.garmin.com/xmlschemas/GpxExtensions/v3">
                        <gpxx:Temperature>35</gpxx:Temperature>
                    </gpxx:TrackPointExtension>
                </extensions>
            </trkpt>
            <trkpt lon="101.372242" lat="14.188165">
                <ele>38.400024</ele>
                <time>2017-10-29T05:10:32Z</time>
                <extensions>
                    <gpxx:TrackPointExtension xmlns:gpxx="http://www.garmin.com/xmlschemas/GpxExtensions/v3">
                        <gpxx:Temperature>35</gpxx:Temperature>
                    </gpxx:TrackPointExtension>
                </extensions>
            </trkpt>
            <trkpt lon="101.372451" lat="14.188113">
                <ele>38.799988</ele>
                <time>2017-10-29T05:10:39Z</time>
                <extensions>
                    <gpxx:TrackPointExtension xmlns:gpxx="http://www.garmin.com/xmlschemas/GpxExtensions/v3">
                        <gpxx:Temperature>35</gpxx:Temperature>
                    </gpxx:TrackPointExtension>
                </extensions>
            </trkpt>
            <trkpt lon="101.372728" lat="14.188066">
                <ele>39.000000</ele>
                <time>2017-10-29T05:10:46Z</time>
                <extensions>
                    <gpxx:TrackPointExtension xmlns:gpxx="http://www.garmin.com/xmlschemas/GpxExtensions/v3">
                        <gpxx:Temperature>35</gpxx:Temperature>
                    </gpxx:TrackPointExtension>
                </extensions>
            </trkpt>
            <trkpt lon="101.373024" lat="14.188019">
                <ele>39.000000</ele>
                <time>2017-10-29T05:10:53Z</time>
                <extensions>
                    <gpxx:TrackPointExtension xmlns:gpxx="http://www.garmin.com/xmlschemas/GpxExtensions/v3">
                        <gpxx:Temperature>35</gpxx:Temperature>
                    </gpxx:TrackPointExtension>
                </extensions>
            </trkpt>
            <trkpt lon="101.373108" lat="14.187996">
                <ele>39.200012</ele>
                <time>2017-10-29T05:10:55Z</time>
                <extensions>
                    <gpxx:TrackPointExtension xmlns:gpxx="http://www.garmin.com/xmlschemas/GpxExtensions/v3">
                        <gpxx:Temperature>35</gpxx:Temperature>
                    </gpxx:TrackPointExtension>
                </extensions>
            </trkpt>
            <trkpt lon="101.373319" lat="14.187938">
                <ele>39.599976</ele>
                <time>2017-10-29T05:11:00Z</time>
                <extensions>
                    <gpxx:TrackPointExtension xmlns:gpxx="http://www.garmin.com/xmlschemas/GpxExtensions/v3">
                        <gpxx:Temperature>35</gpxx:Temperature>
                    </gpxx:TrackPointExtension>
                </extensions>
            </trkpt>
            <trkpt lon="101.373363" lat="14.187923">
                <ele>39.799988</ele>
                <time>2017-10-29T05:11:01Z</time>
                <extensions>
                    <gpxx:TrackPointExtension xmlns:gpxx="http://www.garmin.com/xmlschemas/GpxExtensions/v3">
                        <gpxx:Temperature>35</gpxx:Temperature>
                    </gpxx:TrackPointExtension>
                </extensions>
            </trkpt>
            <trkpt lon="101.373488" lat="14.187872">
                <ele>39.799988</ele>
                <time>2017-10-29T05:11:04Z</time>
                <extensions>
                    <gpxx:TrackPointExtension xmlns:gpxx="http://www.garmin.com/xmlschemas/GpxExtensions/v3">
                        <gpxx:Temperature>35</gpxx:Temperature>
                    </gpxx:TrackPointExtension>
                </extensions>
            </trkpt>
            <trkpt lon="101.373773" lat="14.187791">
                <ele>39.799988</ele>
                <time>2017-10-29T05:11:11Z</time>
                <extensions>
                    <gpxx:TrackPointExtension xmlns:gpxx="http://www.garmin.com/xmlschemas/GpxExtensions/v3">
                        <gpxx:Temperature>35</gpxx:Temperature>
                    </gpxx:TrackPointExtension>
                </extensions>
            </trkpt>
            <trkpt lon="101.373810" lat="14.187799">
                <ele>40.200012</ele>
                <time>2017-10-29T05:11:12Z</time>
                <extensions>
                    <gpxx:TrackPointExtension xmlns:gpxx="http://www.garmin.com/xmlschemas/GpxExtensions/v3">
                        <gpxx:Temperature>35</gpxx:Temperature>
                    </gpxx:TrackPointExtension>
                </extensions>
            </trkpt>
            <trkpt lon="101.373867" lat="14.187847">
                <ele>40.400024</ele>
                <time>2017-10-29T05:11:14Z</time>
                <extensions>
                    <gpxx:TrackPointExtension xmlns:gpxx="http://www.garmin.com/xmlschemas/GpxExtensions/v3">
                        <gpxx:Temperature>35</gpxx:Temperature>
                    </gpxx:TrackPointExtension>
                </extensions>
            </trkpt>
            <trkpt lon="101.373906" lat="14.187916">
                <ele>40.599976</ele>
                <time>2017-10-29T05:11:16Z</time>
                <extensions>
                    <gpxx:TrackPointExtension xmlns:gpxx="http://www.garmin.com/xmlschemas/GpxExtensions/v3">
                        <gpxx:Temperature>35</gpxx:Temperature>
                    </gpxx:TrackPointExtension>
                </extensions>
            </trkpt>
            <trkpt lon="101.373989" lat="14.188060">
                <ele>40.599976</ele>
                <time>2017-10-29T05:11:20Z</time>
                <extensions>
                    <gpxx:TrackPointExtension xmlns:gpxx="http://www.garmin.com/xmlschemas/GpxExtensions/v3">
                        <gpxx:Temperature>35</gpxx:Temperature>
                    </gpxx:TrackPointExtension>
                </extensions>
            </trkpt>
            <trkpt lon="101.374019" lat="14.188089">
                <ele>40.599976</ele>
                <time>2017-10-29T05:11:21Z</time>
                <extensions>
                    <gpxx:TrackPointExtension xmlns:gpxx="http://www.garmin.com/xmlschemas/GpxExtensions/v3">
                        <gpxx:Temperature>35</gpxx:Temperature>
                    </gpxx:TrackPointExtension>
                </extensions>
            </trkpt>
            <trkpt lon="101.374138" lat="14.188124">
                <ele>40.599976</ele>
                <time>2017-10-29T05:11:24Z</time>
                <extensions>
                    <gpxx:TrackPointExtension xmlns:gpxx="http://www.garmin.com/xmlschemas/GpxExtensions/v3">
                        <gpxx:Temperature>35</gpxx:Temperature>
                    </gpxx:TrackPointExtension>
                </extensions>
            </trkpt>
            <trkpt lon="101.374222" lat="14.188108">
                <ele>40.599976</ele>
                <time>2017-10-29T05:11:26Z</time>
                <extensions>
                    <gpxx:TrackPointExtension xmlns:gpxx="http://www.garmin.com/xmlschemas/GpxExtensions/v3">
                        <gpxx:Temperature>35</gpxx:Temperature>
                    </gpxx:TrackPointExtension>
                </extensions>
            </trkpt>
            <trkpt lon="101.374393" lat="14.188071">
                <ele>40.599976</ele>
                <time>2017-10-29T05:11:30Z</time>
                <extensions>
                    <gpxx:TrackPointExtension xmlns:gpxx="http://www.garmin.com/xmlschemas/GpxExtensions/v3">
                        <gpxx:Temperature>35</gpxx:Temperature>
                    </gpxx:TrackPointExtension>
                </extensions>
            </trkpt>
            <trkpt lon="101.374436" lat="14.188061">
                <ele>40.599976</ele>
                <time>2017-10-29T05:11:31Z</time>
                <extensions>
                    <gpxx:TrackPointExtension xmlns:gpxx="http://www.garmin.com/xmlschemas/GpxExtensions/v3">
                        <gpxx:Temperature>35</gpxx:Temperature>
                    </gpxx:TrackPointExtension>
                </extensions>
            </trkpt>
            <trkpt lon="101.374613" lat="14.188017">
                <ele>40.599976</ele>
                <time>2017-10-29T05:11:35Z</time>
                <extensions>
                    <gpxx:TrackPointExtension xmlns:gpxx="http://www.garmin.com/xmlschemas/GpxExtensions/v3">
                        <gpxx:Temperature>35</gpxx:Temperature>
                    </gpxx:TrackPointExtension>
                </extensions>
            </trkpt>
            <trkpt lon="101.374793" lat="14.187983">
                <ele>40.799988</ele>
                <time>2017-10-29T05:11:39Z</time>
                <extensions>
                    <gpxx:TrackPointExtension xmlns:gpxx="http://www.garmin.com/xmlschemas/GpxExtensions/v3">
                        <gpxx:Temperature>35</gpxx:Temperature>
                    </gpxx:TrackPointExtension>
                </extensions>
            </trkpt>
            <trkpt lon="101.374838" lat="14.187971">
                <ele>41.000000</ele>
                <time>2017-10-29T05:11:40Z</time>
                <extensions>
                    <gpxx:TrackPointExtension xmlns:gpxx="http://www.garmin.com/xmlschemas/GpxExtensions/v3">
                        <gpxx:Temperature>35</gpxx:Temperature>
                    </gpxx:TrackPointExtension>
                </extensions>
            </trkpt>
            <trkpt lon="101.375190" lat="14.187867">
                <ele>41.400024</ele>
                <time>2017-10-29T05:11:48Z</time>
                <extensions>
                    <gpxx:TrackPointExtension xmlns:gpxx="http://www.garmin.com/xmlschemas/GpxExtensions/v3">
                        <gpxx:Temperature>35</gpxx:Temperature>
                    </gpxx:TrackPointExtension>
                </extensions>
            </trkpt>
            <trkpt lon="101.375575" lat="14.187754">
                <ele>41.799988</ele>
                <time>2017-10-29T05:11:57Z</time>
                <extensions>
                    <gpxx:TrackPointExtension xmlns:gpxx="http://www.garmin.com/xmlschemas/GpxExtensions/v3">
                        <gpxx:Temperature>35</gpxx:Temperature>
                    </gpxx:TrackPointExtension>
                </extensions>
            </trkpt>
            <trkpt lon="101.375971" lat="14.187360">
                <ele>23.210000</ele>
                <time>2017-10-29T05:03:02Z</time>
            </trkpt>
            <trkpt lon="101.376496" lat="14.187885">
                <ele>25.130000</ele>
                <time>2017-10-29T05:03:19Z</time>
            </trkpt>
            <trkpt lon="101.377124" lat="14.188513">
                <ele>25.130000</ele>
                <time>2017-10-29T05:03:39Z</time>
            </trkpt>
            <trkpt lon="101.377795" lat="14.189179">
                <ele>24.170000</ele>
                <time>2017-10-29T05:03:58Z</time>
            </trkpt>
            <trkpt lon="101.378465" lat="14.189862">
                <ele>24.170000</ele>
                <time>2017-10-29T05:04:16Z</time>
            </trkpt>
            <trkpt lon="101.379202" lat="14.190603">
                <ele>24.170000</ele>
                <time>2017-10-29T05:04:37Z</time>
            </trkpt>
            <trkpt lon="101.379884" lat="14.191291">
                <ele>25.130000</ele>
                <time>2017-10-29T05:04:56Z</time>
            </trkpt>
            <trkpt lon="101.380561" lat="14.191972">
                <ele>23.690000</ele>
                <time>2017-10-29T05:05:13Z</time>
            </trkpt>
            <trkpt lon="101.381425" lat="14.192833">
                <ele>21.290000</ele>
                <time>2017-10-29T05:05:32Z</time>
            </trkpt>
            <trkpt lon="101.382156" lat="14.193560">
                <ele>19.840000</ele>
                <time>2017-10-29T05:05:50Z</time>
            </trkpt>
            <trkpt lon="101.382846" lat="14.194234">
                <ele>20.320000</ele>
                <time>2017-10-29T05:06:08Z</time>
            </trkpt>
            <trkpt lon="101.383449" lat="14.194852">
                <ele>20.810000</ele>
                <time>2017-10-29T05:06:26Z</time>
            </trkpt>
            <trkpt lon="101.384043" lat="14.195449">
                <ele>20.320000</ele>
                <time>2017-10-29T05:06:43Z</time>
            </trkpt>
            <trkpt lon="101.384077" lat="14.195485">
                <ele>19.840000</ele>
                <time>2017-10-29T05:06:44Z</time>
            </trkpt>
            <trkpt lon="101.384105" lat="14.195524">
                <ele>20.320000</ele>
                <time>2017-10-29T05:06:45Z</time>
            </trkpt>
            <trkpt lon="101.384122" lat="14.195568">
                <ele>20.320000</ele>
                <time>2017-10-29T05:06:46Z</time>
            </trkpt>
            <trkpt lon="101.384126" lat="14.195612">
                <ele>20.320000</ele>
                <time>2017-10-29T05:06:47Z</time>
            </trkpt>
            <trkpt lon="101.384123" lat="14.195652">
                <ele>20.320000</ele>
                <time>2017-10-29T05:06:48Z</time>
            </trkpt>
            <trkpt lon="101.384295" lat="14.195974">
                <ele>20.320000</ele>
                <time>2017-10-29T05:06:58Z</time>
            </trkpt>
            <trkpt lon="101.384356" lat="14.196069">
                <ele>19.840000</ele>
                <time>2017-10-29T05:07:01Z</time>
            </trkpt>
            <trkpt lon="101.384348" lat="14.196128">
                <ele>20.320000</ele>
                <time>2017-10-29T05:07:03Z</time>
            </trkpt>
            <trkpt lon="101.384326" lat="14.196139">
                <ele>20.320000</ele>
                <time>2017-10-29T05:07:04Z</time>
            </trkpt>
            <trkpt lon="101.384300" lat="14.196141">
                <ele>20.810000</ele>
                <time>2017-10-29T05:07:05Z</time>
            </trkpt>
            <trkpt lon="101.384272" lat="14.196139">
                <ele>20.810000</ele>
                <time>2017-10-29T05:07:06Z</time>
            </trkpt>
            <trkpt lon="101.383788" lat="14.196158">
                <ele>21.290000</ele>
                <time>2017-10-29T05:07:21Z</time>
            </trkpt>
            <trkpt lon="101.383482" lat="14.196324">
                <ele>22.250000</ele>
                <time>2017-10-29T05:07:31Z</time>
            </trkpt>
            <trkpt lon="101.383347" lat="14.196501">
                <ele>22.250000</ele>
                <time>2017-10-29T05:07:38Z</time>
            </trkpt>
            <trkpt lon="101.383191" lat="14.196477">
                <ele>21.770000</ele>
                <time>2017-10-29T05:07:44Z</time>
            </trkpt>
            <trkpt lon="101.383167" lat="14.196447">
                <ele>22.250000</ele>
                <time>2017-10-29T05:07:52Z</time>
            </trkpt>
        </trkseg>
    </trk>
</gpx>